Wetterdaten: Mittwoch, 22.03.2023
Datum Zeit Temp. Aussen Temp. o. S. Temp +5cm Feuchte Auss Luftdruck Regen Sonnenschein Regendauer Solar Windben Empfang
22.03.2023 00:00 11,3 C 10,0 C 6,7 C 85 % 1011,7 hPa 0,0 l/m 0 min 0 min 0 W/m 6,4 km/h (2 Bft) 100,00 %
22.03.2023 00:02 11,2 C 10,0 C 6,7 C 85 % 1011,7 hPa 0,0 l/m 0 min 0 min 0 W/m 6,4 km/h (2 Bft) 100,00 %
22.03.2023 00:04 11,2 C 10,0 C 6,7 C 85 % 1011,6 hPa 0,0 l/m 0 min 0 min 0 W/m 6,4 km/h (2 Bft) 97,96 %
22.03.2023 00:07 11,2 C 10,0 C 6,7 C 85 % 1011,7 hPa 0,0 l/m 0 min 0 min 0 W/m 9,7 km/h (2 Bft) 97,26 %
22.03.2023 00:08 11,2 C 10,0 C 6,7 C 85 % 1011,6 hPa 0,0 l/m 0 min 0 min 0 W/m 0,0 km/h (0 Bft) 96,00 %
22.03.2023 00:10 11,2 C 10,6 C 6,7 C 85 % 1011,6 hPa 0,0 l/m 0 min 0 min 0 W/m 6,4 km/h (2 Bft) 94,44 %
22.03.2023 00:12 11,2 C 10,6 C 6,7 C 85 % 1011,6 hPa 0,0 l/m 0 min 0 min 0 W/m 9,7 km/h (2 Bft) 97,87 %
22.03.2023 00:14 11,1 C 10,6 C 6,7 C 85 % 1011,6 hPa 0,0 l/m 0 min 0 min 0 W/m 6,4 km/h (2 Bft) 97,83 %
22.03.2023 00:16 11,2 C 10,6 C 6,7 C 85 % 1011,6 hPa 0,0 l/m 0 min 0 min 0 W/m 3,2 km/h (1 Bft) 97,87 %
22.03.2023 00:18 11,1 C 10,6 C 6,7 C 85 % 1011,6 hPa 0,0 l/m 0 min 0 min 0 W/m 6,4 km/h (2 Bft) 97,87 %
22.03.2023 00:20 11,1 C 10,6 C 6,7 C 85 % 1011,6 hPa 0,0 l/m 0 min 0 min 0 W/m 9,7 km/h (2 Bft) 95,74 %
22.03.2023 00:22 11,1 C 10,6 C 6,7 C 85 % 1011,6 hPa 0,0 l/m 0 min 0 min 0 W/m 3,2 km/h (1 Bft) 98,15 %
22.03.2023 00:24 11,1 C 10,6 C 6,7 C 86 % 1011,6 hPa 0,0 l/m 0 min 0 min 0 W/m 6,4 km/h (2 Bft) 93,62 %
22.03.2023 00:26 11,1 C 10,6 C 6,7 C 86 % 1011,6 hPa 0,0 l/m 0 min 0 min 0 W/m 3,2 km/h (1 Bft) 97,83 %
22.03.2023 00:28 11,1 C 10,6 C 6,7 C 86 % 1011,5 hPa 0,0 l/m 0 min 0 min 0 W/m 9,7 km/h (2 Bft) 97,87 %
22.03.2023 00:30 11,1 C 10,6 C 6,7 C 86 % 1011,5 hPa 0,0 l/m 0 min 0 min 0 W/m 6,4 km/h (2 Bft) 97,87 %
22.03.2023 00:32 11,1 C 10,6 C 6,7 C 86 % 1011,5 hPa 0,0 l/m 0 min 0 min 0 W/m 6,4 km/h (2 Bft) 95,74 %
22.03.2023 00:34 11,1 C 10,6 C 6,7 C 86 % 1011,5 hPa 0,0 l/m 0 min 0 min 0 W/m 6,4 km/h (2 Bft) 97,87 %
22.03.2023 00:36 11,1 C 10,6 C 6,7 C 86 % 1011,5 hPa 0,0 l/m 0 min 0 min 0 W/m 6,4 km/h (2 Bft) 97,87 %
22.03.2023 00:38 11,1 C 10,6 C 6,7 C 86 % 1011,4 hPa 0,0 l/m 0 min 0 min 0 W/m 6,4 km/h (2 Bft) 97,87 %
22.03.2023 00:40 11,1 C 10,6 C 6,7 C 86 % 1011,4 hPa 0,0 l/m 0 min 0 min 0 W/m 6,4 km/h (2 Bft) 97,83 %
22.03.2023 00:42 11,1 C 10,6 C 6,7 C 86 % 1011,4 hPa 0,0 l/m 0 min 0 min 0 W/m 9,7 km/h (2 Bft) 95,83 %
22.03.2023 00:44 11,1 C 10,6 C 6,7 C 86 % 1011,5 hPa 0,0 l/m 0 min 0 min 0 W/m 6,4 km/h (2 Bft) 95,74 %
22.03.2023 00:46 11,1 C 10,6 C 6,7 C 86 % 1011,4 hPa 0,0 l/m 0 min 0 min 0 W/m 6,4 km/h (2 Bft) 97,87 %
22.03.2023 00:48 11,1 C 10,6 C 6,7 C 86 % 1011,4 hPa 0,0 l/m 0 min 0 min 0 W/m 9,7 km/h (2 Bft) 97,87 %
22.03.2023 00:50 11,1 C 10,6 C 6,7 C 86 % 1011,4 hPa 0,0 l/m 0 min 0 min 0 W/m 9,7 km/h (2 Bft) 97,87 %
22.03.2023 00:52 11,1 C 10,6 C 6,7 C 86 % 1011,5 hPa 0,0 l/m 0 min 0 min 0 W/m 6,4 km/h (2 Bft) 94,74 %
22.03.2023 00:54 11,1 C 10,6 C 6,7 C 86 % 1011,4 hPa 0,0 l/m 0 min 0 min 0 W/m 3,2 km/h (1 Bft) 91,49 %
22.03.2023 00:56 11,2 C 10,6 C 6,7 C 86 % 1011,4 hPa 0,0 l/m 0 min 0 min 0 W/m 12,9 km/h (3 Bft) 97,87 %
22.03.2023 00:58 11,2 C 10,6 C 6,7 C 86 % 1011,4 hPa 0,0 l/m 0 min 0 min 0 W/m 9,7 km/h (2 Bft) 95,74 %
22.03.2023 01:00 11,2 C 10,6 C 6,7 C 86 % 1011,4 hPa 0,0 l/m 0 min 0 min 0 W/m 16,1 km/h (3 Bft) 97,87 %
22.03.2023 01:02 11,2 C 10,6 C 7,2 C 86 % 1011,4 hPa 0,0 l/m 0 min 0 min 0 W/m 9,7 km/h (2 Bft) 95,74 %
22.03.2023 01:04 11,2 C 10,6 C 7,2 C 86 % 1011,4 hPa 0,0 l/m 0 min 0 min 0 W/m 12,9 km/h (3 Bft) 95,74 %
22.03.2023 01:06 11,2 C 10,6 C 7,2 C 86 % 1011,4 hPa 0,0 l/m 0 min 0 min 0 W/m 12,9 km/h (3 Bft) 96,55 %
22.03.2023 01:08 11,2 C 10,6 C 7,2 C 86 % 1011,4 hPa 0,0 l/m 0 min 0 min 0 W/m 6,4 km/h (2 Bft) 94,44 %
22.03.2023 01:10 11,2 C 10,6 C 7,2 C 86 % 1011,4 hPa 0,0 l/m 0 min 0 min 0 W/m 12,9 km/h (3 Bft) 97,83 %
22.03.2023 01:12 11,2 C 10,6 C 6,7 C 86 % 1011,3 hPa 0,0 l/m 0 min 0 min 0 W/m 3,2 km/h (1 Bft) 93,62 %
22.03.2023 01:14 11,2 C 10,6 C 6,7 C 86 % 1011,3 hPa 0,0 l/m 0 min 0 min 0 W/m 6,4 km/h (2 Bft) 93,62 %
22.03.2023 01:16 11,2 C 10,6 C 6,7 C 86 % 1011,2 hPa 0,0 l/m 0 min 0 min 0 W/m 3,2 km/h (1 Bft) 93,62 %
22.03.2023 01:18 11,2 C 10,6 C 6,7 C 86 % 1011,2 hPa 0,0 l/m 0 min 0 min 0 W/m 6,4 km/h (2 Bft) 95,74 %
22.03.2023 01:20 11,2 C 10,6 C 6,7 C 86 % 1011,2 hPa 0,0 l/m 0 min 0 min 0 W/m 6,4 km/h (2 Bft) 94,44 %
22.03.2023 01:22 11,2 C 10,6 C 6,7 C 86 % 1011,2 hPa 0,0 l/m 0 min 0 min 0 W/m 9,7 km/h (2 Bft) 94,87 %
22.03.2023 01:24 11,2 C 10,0 C 6,7 C 86 % 1011,2 hPa 0,0 l/m 0 min 0 min 0 W/m 6,4 km/h (2 Bft) 97,83 %
22.03.2023 01:26 11,2 C 10,0 C 6,7 C 86 % 1011,2 hPa 0,0 l/m 0 min 0 min 0 W/m 6,4 km/h (2 Bft) 95,74 %
22.03.2023 01:28 11,2 C 10,0 C 6,7 C 86 % 1011,2 hPa 0,0 l/m 0 min 0 min 0 W/m 6,4 km/h (2 Bft) 95,83 %
22.03.2023 01:30 11,1 C 10,0 C 6,7 C 86 % 1011,1 hPa 0,0 l/m 0 min 0 min 0 W/m 6,4 km/h (2 Bft) 97,87 %
22.03.2023 01:32 11,1 C 10,0 C 6,7 C 85 % 1011,1 hPa 0,0 l/m 0 min 0 min 0 W/m 6,4 km/h (2 Bft) 93,62 %
22.03.2023 01:34 11,1 C 10,0 C 6,7 C 86 % 1011,1 hPa 0,0 l/m 0 min 0 min 0 W/m 6,4 km/h (2 Bft) 97,87 %
22.03.2023 01:36 11,1 C 10,0 C 6,7 C 86 % 1011,0 hPa 0,0 l/m 0 min 0 min 0 W/m 9,7 km/h (2 Bft) 97,83 %
22.03.2023 01:38 11,1 C 10,0 C 6,1 C 86 % 1011,0 hPa 0,0 l/m 0 min 0 min 0 W/m 6,4 km/h (2 Bft) 93,62 %
22.03.2023 01:40 11,0 C 10,0 C 6,1 C 86 % 1011,0 hPa 0,0 l/m 0 min 0 min 0 W/m 6,4 km/h (2 Bft) 97,87 %
22.03.2023 01:42 10,9 C 9,4 C 6,1 C 86 % 1011,0 hPa 0,0 l/m 0 min 0 min 0 W/m 6,4 km/h (2 Bft) 97,87 %
22.03.2023 01:44 10,9 C 9,4 C 6,1 C 86 % 1010,9 hPa 0,0 l/m 0 min 0 min 0 W/m 3,2 km/h (1 Bft) 95,74 %
22.03.2023 01:46 10,9 C 9,4 C 6,1 C 86 % 1010,9 hPa 0,0 l/m 0 min 0 min 0 W/m 3,2 km/h (1 Bft) 97,87 %
22.03.2023 01:48 10,9 C 9,4 C 6,1 C 86 % 1010,9 hPa 0,0 l/m 0 min 0 min 0 W/m 6,4 km/h (2 Bft) 95,74 %
22.03.2023 01:50 10,8 C 9,4 C 6,1 C 86 % 1010,9 hPa 0,0 l/m 0 min 0 min 0 W/m 9,7 km/h (2 Bft) 95,74 %
22.03.2023 01:52 10,8 C 9,4 C 6,1 C 86 % 1010,8 hPa 0,0 l/m 0 min 0 min 0 W/m 6,4 km/h (2 Bft) 96,23 %
22.03.2023 01:54 10,8 C 9,4 C 6,1 C 86 % 1010,9 hPa 0,0 l/m 0 min 0 min 0 W/m 6,4 km/h (2 Bft) 100,00 %
22.03.2023 01:56 10,8 C 9,4 C 6,1 C 86 % 1010,8 hPa 0,0 l/m 0 min 0 min 0 W/m 6,4 km/h (2 Bft) 97,92 %
22.03.2023 01:58 10,7 C 9,4 C 6,1 C 86 % 1010,8 hPa 0,0 l/m 0 min 0 min 0 W/m 6,4 km/h (2 Bft) 97,87 %
22.03.2023 02:00 10,7 C 9,4 C 6,1 C 86 % 1010,8 hPa 0,0 l/m 0 min 0 min 0 W/m 3,2 km/h (1 Bft) 100,00 %
22.03.2023 02:02 10,7 C 9,4 C 6,1 C 87 % 1010,8 hPa 0,0 l/m 0 min 0 min 0 W/m 3,2 km/h (1 Bft) 97,37 %
22.03.2023 02:04 10,7 C 9,4 C 6,1 C 87 % 1010,8 hPa 0,0 l/m 0 min 0 min 0 W/m 6,4 km/h (2 Bft) 100,00 %
22.03.2023 02:06 10,6 C 9,4 C 6,1 C 87 % 1010,7 hPa 0,0 l/m 0 min 0 min 0 W/m 6,4 km/h (2 Bft) 98,31 %
22.03.2023 02:08 10,6 C 9,4 C 6,1 C 87 % 1010,7 hPa 0,0 l/m 0 min 0 min 0 W/m 6,4 km/h (2 Bft) 100,00 %
22.03.2023 02:10 10,6 C 9,4 C 6,1 C 87 % 1010,7 hPa 0,0 l/m 0 min 0 min 0 W/m 3,2 km/h (1 Bft) 100,00 %
22.03.2023 02:12 10,6 C 9,4 C 6,1 C 87 % 1010,7 hPa 0,0 l/m 0 min 0 min 0 W/m 3,2 km/h (1 Bft) 100,00 %
22.03.2023 02:14 10,6 C 9,4 C 6,1 C 87 % 1010,7 hPa 0,0 l/m 0 min 0 min 0 W/m 6,4 km/h (2 Bft) 97,87 %
22.03.2023 02:16 10,6 C 9,4 C 6,1 C 87 % 1010,7 hPa 0,0 l/m 0 min 0 min 0 W/m 6,4 km/h (2 Bft) 100,00 %
22.03.2023 02:18 10,6 C 9,4 C 6,1 C 87 % 1010,6 hPa 0,0 l/m 0 min 0 min 0 W/m 3,2 km/h (1 Bft) 97,83 %
22.03.2023 02:20 10,5 C 9,4 C 6,1 C 87 % 1010,6 hPa 0,0 l/m 0 min 0 min 0 W/m 6,4 km/h (2 Bft) 97,87 %
22.03.2023 02:22 10,5 C 9,4 C 6,1 C 87 % 1010,5 hPa 0,0 l/m 0 min 0 min 0 W/m 6,4 km/h (2 Bft) 100,00 %
22.03.2023 02:24 10,5 C 9,4 C 6,1 C 87 % 1010,5 hPa 0,0 l/m 0 min 0 min 0 W/m 3,2 km/h (1 Bft) 100,00 %
22.03.2023 02:26 10,4 C 9,4 C 5,6 C 87 % 1010,5 hPa 0,0 l/m 0 min 0 min 0 W/m 3,2 km/h (1 Bft) 97,87 %
22.03.2023 02:28 10,4 C 8,9 C 5,6 C 88 % 1010,5 hPa 0,0 l/m 0 min 0 min 0 W/m 3,2 km/h (1 Bft) 100,00 %
22.03.2023 02:30 10,4 C 8,9 C 5,6 C 88 % 1010,5 hPa 0,0 l/m 0 min 0 min 0 W/m 6,4 km/h (2 Bft) 100,00 %
22.03.2023 02:32 10,4 C 8,9 C 5,6 C 88 % 1010,5 hPa 0,0 l/m 0 min 0 min 0 W/m 6,4 km/h (2 Bft) 100,00 %
22.03.2023 02:34 10,3 C 8,9 C 5,6 C 88 % 1010,5 hPa 0,0 l/m 0 min 0 min 0 W/m 6,4 km/h (2 Bft) 98,15 %
22.03.2023 02:36 10,3 C 8,9 C 5,6 C 88 % 1010,4 hPa 0,0 l/m 0 min 0 min 0 W/m 3,2 km/h (1 Bft) 97,87 %
22.03.2023 02:38 10,3 C 8,9 C 5,6 C 88 % 1010,4 hPa 0,0 l/m 0 min 0 min 0 W/m 6,4 km/h (2 Bft) 97,87 %
22.03.2023 02:40 10,3 C 8,9 C 5,6 C 88 % 1010,3 hPa 0,0 l/m 0 min 0 min 0 W/m 6,4 km/h (2 Bft) 100,00 %
22.03.2023 02:42 10,2 C 8,9 C 5,6 C 88 % 1010,3 hPa 0,0 l/m 0 min 0 min 0 W/m 6,4 km/h (2 Bft) 97,87 %
22.03.2023 02:44 10,2 C 8,9 C 5,6 C 88 % 1010,2 hPa 0,0 l/m 0 min 0 min 0 W/m 6,4 km/h (2 Bft) 97,87 %
22.03.2023 02:46 10,2 C 8,9 C 5,6 C 88 % 1010,2 hPa 0,0 l/m 0 min 0 min 0 W/m 3,2 km/h (1 Bft) 95,83 %
22.03.2023 02:48 10,1 C 8,9 C 5,6 C 88 % 1010,2 hPa 0,0 l/m 0 min 0 min 0 W/m 3,2 km/h (1 Bft) 97,87 %
22.03.2023 02:50 10,1 C 8,9 C 5,6 C 88 % 1010,2 hPa 0,0 l/m 0 min 0 min 0 W/m 6,4 km/h (2 Bft) 97,87 %
22.03.2023 02:52 10,1 C 8,9 C 5,6 C 88 % 1010,1 hPa 0,0 l/m 0 min 0 min 0 W/m 3,2 km/h (1 Bft) 97,87 %
22.03.2023 02:54 10,1 C 8,9 C 5,6 C 88 % 1010,1 hPa 0,0 l/m 0 min 0 min 0 W/m 9,7 km/h (2 Bft) 97,50 %
22.03.2023 02:56 10,0 C 8,9 C 5,6 C 88 % 1010,0 hPa 0,0 l/m 0 min 0 min 0 W/m 3,2 km/h (1 Bft) 97,96 %
22.03.2023 02:58 10,0 C 8,9 C 5,6 C 88 % 1010,1 hPa 0,0 l/m 0 min 0 min 0 W/m 3,2 km/h (1 Bft) 97,87 %
22.03.2023 03:00 10,0 C 8,9 C 5,6 C 89 % 1010,0 hPa 0,0 l/m 0 min 0 min 0 W/m 3,2 km/h (1 Bft) 95,74 %
22.03.2023 03:02 9,9 C 8,9 C 5,6 C 89 % 1010,0 hPa 0,0 l/m 0 min 0 min 0 W/m 6,4 km/h (2 Bft) 97,87 %
22.03.2023 03:04 9,9 C 8,9 C 5,6 C 89 % 1010,0 hPa 0,0 l/m 0 min 0 min 0 W/m 6,4 km/h (2 Bft) 95,74 %
22.03.2023 03:06 9,9 C 8,9 C 5,6 C 89 % 1010,0 hPa 0,0 l/m 0 min 0 min 0 W/m 6,4 km/h (2 Bft) 95,74 %
22.03.2023 03:08 9,9 C 8,9 C 5,6 C 89 % 1009,9 hPa 0,0 l/m 0 min 0 min 0 W/m 6,4 km/h (2 Bft) 95,65 %
22.03.2023 03:10 9,9 C 8,9 C 5,6 C 89 % 1009,9 hPa 0,0 l/m 0 min 0 min 0 W/m 6,4 km/h (2 Bft) 94,44 %
22.03.2023 03:12 9,8 C 8,9 C 5,6 C 89 % 1009,8 hPa 0,0 l/m 0 min 0 min 0 W/m 6,4 km/h (2 Bft) 97,83 %
22.03.2023 03:14 9,8 C 8,9 C 5,6 C 89 % 1009,8 hPa 0,0 l/m 0 min 0 min 0 W/m 6,4 km/h (2 Bft) 97,87 %
22.03.2023 03:16 9,8 C 8,9 C 5,6 C 89 % 1009,8 hPa 0,0 l/m 0 min 0 min 0 W/m 6,4 km/h (2 Bft) 96,23 %
22.03.2023 03:18 9,8 C 8,9 C 5,6 C 89 % 1009,7 hPa 0,0 l/m 0 min 0 min 0 W/m 6,4 km/h (2 Bft) 97,87 %
22.03.2023 03:20 9,8 C 8,9 C 5,6 C 89 % 1009,7 hPa 0,0 l/m 0 min 0 min 0 W/m 6,4 km/h (2 Bft) 93,75 %
22.03.2023 03:22 9,8 C 8,9 C 5,6 C 89 % 1009,7 hPa 0,0 l/m 0 min 0 min 0 W/m 3,2 km/h (1 Bft) 95,65 %
22.03.2023 03:24 9,7 C 8,9 C 5,6 C 89 % 1009,7 hPa 0,0 l/m 0 min 0 min 0 W/m 6,4 km/h (2 Bft) 97,92 %
22.03.2023 03:26 9,7 C 8,3 C 5,6 C 89 % 1009,6 hPa 0,0 l/m 0 min 0 min 0 W/m 3,2 km/h (1 Bft) 95,74 %
22.03.2023 03:28 9,7 C 8,3 C 5,6 C 89 % 1009,5 hPa 0,0 l/m 0 min 0 min 0 W/m 6,4 km/h (2 Bft) 97,92 %
22.03.2023 03:30 9,7 C 8,3 C 5,6 C 89 % 1009,5 hPa 0,0 l/m 0 min 0 min 0 W/m 6,4 km/h (2 Bft) 95,74 %
22.03.2023 03:32 9,7 C 8,3 C 5,6 C 89 % 1009,4 hPa 0,0 l/m 0 min 0 min 0 W/m 6,4 km/h (2 Bft) 97,87 %
22.03.2023 03:34 9,7 C 8,3 C 5,6 C 90 % 1009,5 hPa 0,0 l/m 0 min 0 min 0 W/m 6,4 km/h (2 Bft) 97,92 %
22.03.2023 03:36 9,6 C 8,3 C 5,6 C 90 % 1009,4 hPa 0,0 l/m 0 min 0 min 0 W/m 6,4 km/h (2 Bft) 93,62 %
22.03.2023 03:38 9,6 C 8,3 C 5,6 C 90 % 1009,4 hPa 0,0 l/m 0 min 0 min 0 W/m 6,4 km/h (2 Bft) 93,62 %
22.03.2023 03:40 9,6 C 8,3 C 5,6 C 90 % 1009,4 hPa 0,0 l/m 0 min 0 min 0 W/m 9,7 km/h (2 Bft) 94,74 %
22.03.2023 03:42 9,6 C 8,3 C 5,6 C 90 % 1009,4 hPa 0,0 l/m 0 min 0 min 0 W/m 6,4 km/h (2 Bft) 95,74 %
22.03.2023 03:44 9,6 C 8,3 C 5,6 C 90 % 1009,4 hPa 0,0 l/m 0 min 0 min 0 W/m 6,4 km/h (2 Bft) 97,87 %
22.03.2023 03:46 9,6 C 8,3 C 5,6 C 90 % 1009,4 hPa 0,0 l/m 0 min 0 min 0 W/m 12,9 km/h (3 Bft) 95,74 %
22.03.2023 03:48 9,5 C 8,3 C 5,6 C 90 % 1009,4 hPa 0,0 l/m 0 min 0 min 0 W/m 9,7 km/h (2 Bft) 95,74 %
22.03.2023 03:50 9,5 C 8,3 C 5,6 C 90 % 1009,4 hPa 0,0 l/m 0 min 0 min 0 W/m 9,7 km/h (2 Bft) 95,65 %
22.03.2023 03:52 9,5 C 8,3 C 5,6 C 90 % 1009,4 hPa 0,0 l/m 0 min 0 min 0 W/m 12,9 km/h (3 Bft) 91,49 %
22.03.2023 03:54 9,5 C 8,3 C 5,6 C 90 % 1009,4 hPa 0,0 l/m 0 min 0 min 0 W/m 12,9 km/h (3 Bft) 95,74 %
22.03.2023 03:56 9,5 C 8,3 C 5,0 C 90 % 1009,4 hPa 0,0 l/m 0 min 0 min 0 W/m 9,7 km/h (2 Bft) 93,62 %
22.03.2023 03:58 9,5 C 8,3 C 5,0 C 90 % 1009,4 hPa 0,0 l/m 0 min 0 min 0 W/m 6,4 km/h (2 Bft) 97,96 %
22.03.2023 04:00 9,5 C 8,3 C 5,0 C 90 % 1009,3 hPa 0,0 l/m 0 min 0 min 0 W/m 12,9 km/h (3 Bft) 92,45 %
22.03.2023 04:02 9,4 C 8,3 C 5,0 C 90 % 1009,3 hPa 0,0 l/m 0 min 0 min 0 W/m 16,1 km/h (3 Bft) 91,67 %
22.03.2023 04:08 9,4 C 8,3 C 5,0 C 90 % 1009,4 hPa 0,0 l/m 0 min 0 min 0 W/m 9,7 km/h (2 Bft) 100,00 %
22.03.2023 04:10 9,4 C 8,3 C 5,0 C 90 % 1009,4 hPa 0,0 l/m 0 min 0 min 0 W/m 6,4 km/h (2 Bft) 80,70 %
22.03.2023 04:15 9,4 C 8,3 C 5,0 C 90 % 1009,4 hPa 0,0 l/m 0 min 0 min 0 W/m 9,7 km/h (2 Bft) 62,28 %
22.03.2023 04:18 9,4 C 8,3 C 5,0 C 91 % 1009,3 hPa 0,0 l/m 0 min 0 min 0 W/m 6,4 km/h (2 Bft) 100,00 %
22.03.2023 04:23 9,4 C 8,3 C 5,6 C 91 % 1009,3 hPa 0,0 l/m 0 min 0 min 0 W/m 12,9 km/h (3 Bft) 96,00 %
22.03.2023 04:24 9,4 C 8,3 C 5,6 C 91 % 1009,3 hPa 0,0 l/m 0 min 0 min 0 W/m 6,4 km/h (2 Bft) 100,00 %
22.03.2023 04:26 9,4 C 8,3 C 5,6 C 91 % 1009,3 hPa 0,0 l/m 0 min 0 min 0 W/m 9,7 km/h (2 Bft) 97,87 %
22.03.2023 04:28 9,4 C 8,3 C 5,6 C 91 % 1009,3 hPa 0,0 l/m 0 min 0 min 0 W/m 12,9 km/h (3 Bft) 100,00 %
22.03.2023 04:30 9,5 C 8,9 C 5,6 C 91 % 1009,2 hPa 0,0 l/m 0 min 0 min 0 W/m 6,4 km/h (2 Bft) 97,87 %
22.03.2023 04:32 9,5 C 8,9 C 5,6 C 91 % 1009,2 hPa 0,0 l/m 0 min 0 min 0 W/m 12,9 km/h (3 Bft) 97,92 %
22.03.2023 04:34 9,5 C 8,9 C 5,6 C 91 % 1009,2 hPa 0,0 l/m 0 min 0 min 0 W/m 12,9 km/h (3 Bft) 97,87 %
22.03.2023 04:36 9,5 C 8,9 C 5,6 C 91 % 1009,1 hPa 0,0 l/m 0 min 0 min 0 W/m 12,9 km/h (3 Bft) 95,65 %
22.03.2023 04:38 9,6 C 8,9 C 5,6 C 91 % 1009,2 hPa 0,0 l/m 0 min 0 min 0 W/m 9,7 km/h (2 Bft) 97,87 %
22.03.2023 04:40 9,6 C 8,9 C 5,6 C 91 % 1009,1 hPa 0,0 l/m 0 min 0 min 0 W/m 16,1 km/h (3 Bft) 97,87 %
22.03.2023 04:42 9,6 C 8,9 C 5,6 C 91 % 1009,2 hPa 0,0 l/m 0 min 0 min 0 W/m 16,1 km/h (3 Bft) 97,87 %
22.03.2023 04:44 9,6 C 8,9 C 5,6 C 91 % 1009,2 hPa 0,0 l/m 0 min 0 min 0 W/m 6,4 km/h (2 Bft) 98,11 %
22.03.2023 04:46 9,6 C 8,9 C 5,6 C 91 % 1009,2 hPa 0,0 l/m 0 min 0 min 0 W/m 12,9 km/h (3 Bft) 97,96 %
22.03.2023 04:48 9,6 C 8,9 C 5,6 C 91 % 1009,2 hPa 0,0 l/m 0 min 0 min 0 W/m 12,9 km/h (3 Bft) 97,87 %
22.03.2023 04:50 9,6 C 8,9 C 5,6 C 91 % 1009,2 hPa 0,0 l/m 0 min 0 min 0 W/m 6,4 km/h (2 Bft) 97,37 %
22.03.2023 04:52 9,6 C 8,9 C 5,6 C 90 % 1009,2 hPa 0,0 l/m 0 min 0 min 0 W/m 9,7 km/h (2 Bft) 97,87 %
22.03.2023 04:54 9,6 C 8,9 C 5,6 C 90 % 1009,2 hPa 0,0 l/m 0 min 0 min 0 W/m 12,9 km/h (3 Bft) 95,74 %
22.03.2023 04:56 9,6 C 8,9 C 5,6 C 90 % 1009,2 hPa 0,0 l/m 0 min 0 min 0 W/m 16,1 km/h (3 Bft) 97,87 %
22.03.2023 04:58 9,6 C 8,9 C 5,6 C 90 % 1009,2 hPa 0,0 l/m 0 min 0 min 0 W/m 12,9 km/h (3 Bft) 97,87 %
22.03.2023 05:00 9,6 C 8,9 C 5,6 C 90 % 1009,2 hPa 0,0 l/m 0 min 0 min 0 W/m 16,1 km/h (3 Bft) 97,87 %
22.03.2023 05:02 9,6 C 8,9 C 5,6 C 90 % 1009,3 hPa 0,0 l/m 0 min 0 min 0 W/m 12,9 km/h (3 Bft) 97,87 %
22.03.2023 05:04 9,7 C 8,9 C 5,6 C 90 % 1009,2 hPa 0,0 l/m 0 min 0 min 0 W/m 6,4 km/h (2 Bft) 97,92 %
22.03.2023 05:06 9,7 C 8,9 C 5,6 C 90 % 1009,2 hPa 0,0 l/m 0 min 0 min 0 W/m 12,9 km/h (3 Bft) 100,00 %
22.03.2023 05:08 9,7 C 8,9 C 5,6 C 90 % 1009,2 hPa 0,0 l/m 0 min 0 min 0 W/m 12,9 km/h (3 Bft) 100,00 %
22.03.2023 05:10 9,7 C 8,9 C 5,6 C 90 % 1009,2 hPa 0,0 l/m 0 min 0 min 0 W/m 9,7 km/h (2 Bft) 100,00 %
22.03.2023 05:12 9,6 C 8,9 C 5,6 C 90 % 1009,2 hPa 0,0 l/m 0 min 0 min 0 W/m 6,4 km/h (2 Bft) 100,00 %
22.03.2023 05:14 9,6 C 8,9 C 5,6 C 90 % 1009,1 hPa 0,0 l/m 0 min 0 min 0 W/m 6,4 km/h (2 Bft) 100,00 %
22.03.2023 05:16 9,6 C 8,9 C 5,6 C 90 % 1009,2 hPa 0,0 l/m 0 min 0 min 0 W/m 9,7 km/h (2 Bft) 100,00 %
22.03.2023 05:18 9,6 C 8,3 C 5,6 C 90 % 1009,1 hPa 0,0 l/m 0 min 0 min 0 W/m 12,9 km/h (3 Bft) 97,87 %
22.03.2023 05:20 9,6 C 8,3 C 5,6 C 90 % 1009,1 hPa 0,0 l/m 0 min 0 min 0 W/m 6,4 km/h (2 Bft) 100,00 %
22.03.2023 05:22 9,6 C 8,3 C 5,0 C 90 % 1009,1 hPa 0,0 l/m 0 min 0 min 0 W/m 6,4 km/h (2 Bft) 100,00 %
22.03.2023 05:24 9,6 C 8,3 C 5,0 C 90 % 1009,1 hPa 0,0 l/m 0 min 0 min 0 W/m 12,9 km/h (3 Bft) 100,00 %
22.03.2023 05:26 9,6 C 8,3 C 5,0 C 90 % 1009,0 hPa 0,0 l/m 0 min 0 min 0 W/m 9,7 km/h (2 Bft) 100,00 %
22.03.2023 05:28 9,6 C 8,3 C 5,0 C 90 % 1009,0 hPa 0,0 l/m 0 min 0 min 0 W/m 12,9 km/h (3 Bft) 100,00 %
22.03.2023 05:30 9,5 C 8,3 C 5,0 C 90 % 1009,0 hPa 0,0 l/m 0 min 0 min 0 W/m 12,9 km/h (3 Bft) 100,00 %
22.03.2023 05:32 9,5 C 8,3 C 5,0 C 90 % 1009,0 hPa 0,0 l/m 0 min 0 min 0 W/m 6,4 km/h (2 Bft) 100,00 %
22.03.2023 05:34 9,5 C 8,3 C 5,0 C 90 % 1009,0 hPa 0,0 l/m 0 min 0 min 0 W/m 12,9 km/h (3 Bft) 100,00 %
22.03.2023 05:36 9,5 C 8,3 C 5,0 C 90 % 1009,0 hPa 0,0 l/m 0 min 0 min 0 W/m 9,7 km/h (2 Bft) 97,87 %
22.03.2023 05:38 9,4 C 8,3 C 5,0 C 90 % 1009,0 hPa 0,0 l/m 0 min 0 min 0 W/m 9,7 km/h (2 Bft) 100,00 %
22.03.2023 05:40 9,4 C 8,3 C 5,0 C 90 % 1008,9 hPa 0,0 l/m 0 min 0 min 0 W/m 16,1 km/h (3 Bft) 97,87 %
22.03.2023 05:42 9,4 C 8,9 C 5,0 C 90 % 1009,0 hPa 0,0 l/m 0 min 0 min 0 W/m 12,9 km/h (3 Bft) 97,83 %
22.03.2023 05:44 9,4 C 8,9 C 5,6 C 90 % 1009,0 hPa 0,0 l/m 0 min 0 min 0 W/m 12,9 km/h (3 Bft) 100,00 %
22.03.2023 05:46 9,5 C 8,9 C 5,6 C 90 % 1009,0 hPa 0,0 l/m 0 min 0 min 0 W/m 12,9 km/h (3 Bft) 100,00 %
22.03.2023 05:48 9,5 C 8,9 C 5,6 C 90 % 1009,0 hPa 0,0 l/m 0 min 0 min 0 W/m 12,9 km/h (3 Bft) 95,74 %
22.03.2023 05:50 9,5 C 8,9 C 5,6 C 90 % 1009,0 hPa 0,0 l/m 0 min 0 min 0 W/m 16,1 km/h (3 Bft) 100,00 %
22.03.2023 05:52 9,5 C 8,9 C 5,6 C 90 % 1009,0 hPa 0,0 l/m 0 min 0 min 0 W/m 6,4 km/h (2 Bft) 100,00 %
22.03.2023 05:54 9,5 C 8,9 C 5,6 C 90 % 1009,0 hPa 0,0 l/m 0 min 0 min 0 W/m 9,7 km/h (2 Bft) 100,00 %
22.03.2023 05:56 9,5 C 8,9 C 5,6 C 90 % 1009,0 hPa 0,0 l/m 0 min 0 min 0 W/m 9,7 km/h (2 Bft) 97,87 %
22.03.2023 05:58 9,6 C 8,9 C 5,6 C 90 % 1009,0 hPa 0,0 l/m 0 min 0 min 0 W/m 12,9 km/h (3 Bft) 97,87 %
22.03.2023 06:00 9,6 C 8,9 C 5,6 C 90 % 1009,0 hPa 0,0 l/m 0 min 0 min 0 W/m 6,4 km/h (2 Bft) 97,87 %
22.03.2023 06:02 9,6 C 8,9 C 5,6 C 90 % 1009,0 hPa 0,0 l/m 0 min 0 min 0 W/m 19,3 km/h (3 Bft) 95,74 %
22.03.2023 06:04 9,6 C 8,9 C 5,6 C 90 % 1009,0 hPa 0,0 l/m 0 min 0 min 0 W/m 9,7 km/h (2 Bft) 97,87 %
22.03.2023 06:07 9,6 C 8,9 C 5,6 C 90 % 1008,9 hPa 0,0 l/m 0 min 0 min 0 W/m 9,7 km/h (2 Bft) 97,14 %
22.03.2023 06:08 9,6 C 8,9 C 5,6 C 90 % 1008,9 hPa 0,0 l/m 0 min 0 min 0 W/m 9,7 km/h (2 Bft) 100,00 %
22.03.2023 06:12 9,6 C 8,9 C 5,6 C 90 % 1008,9 hPa 0,0 l/m 0 min 0 min 0 W/m 12,9 km/h (3 Bft) 94,44 %
22.03.2023 06:14 9,6 C 8,9 C 5,6 C 90 % 1008,9 hPa 0,0 l/m 0 min 0 min 0 W/m 12,9 km/h (3 Bft) 93,62 %
22.03.2023 06:16 9,6 C 8,9 C 5,6 C 90 % 1009,0 hPa 0,0 l/m 0 min 0 min 0 W/m 9,7 km/h (2 Bft) 94,00 %
22.03.2023 06:18 9,6 C 8,9 C 5,6 C 90 % 1009,0 hPa 0,0 l/m 0 min 0 min 0 W/m 9,7 km/h (2 Bft) 95,74 %
22.03.2023 06:20 9,6 C 8,9 C 5,6 C 90 % 1008,9 hPa 0,0 l/m 0 min 0 min 0 W/m 9,7 km/h (2 Bft) 93,62 %
22.03.2023 06:22 9,6 C 8,9 C 5,6 C 90 % 1008,9 hPa 0,0 l/m 0 min 0 min 0 W/m 12,9 km/h (3 Bft) 93,48 %
22.03.2023 06:24 9,6 C 8,9 C 5,6 C 90 % 1009,0 hPa 0,0 l/m 0 min 0 min 0 W/m 12,9 km/h (3 Bft) 93,62 %
22.03.2023 06:26 9,6 C 8,9 C 5,6 C 90 % 1009,0 hPa 0,0 l/m 0 min 0 min 0 W/m 12,9 km/h (3 Bft) 93,62 %
22.03.2023 06:28 9,6 C 8,9 C 5,6 C 90 % 1009,0 hPa 0,0 l/m 0 min 0 min 0 W/m 12,9 km/h (3 Bft) 91,49 %
22.03.2023 06:30 9,7 C 8,9 C 5,6 C 90 % 1009,0 hPa 0,0 l/m 0 min 0 min 0 W/m 6,4 km/h (2 Bft) 89,36 %
22.03.2023 06:32 9,7 C 8,9 C 5,6 C 90 % 1009,0 hPa 0,0 l/m 0 min 0 min 0 W/m 6,4 km/h (2 Bft) 91,49 %
22.03.2023 06:34 9,7 C 8,9 C 5,6 C 90 % 1009,0 hPa 0,0 l/m 0 min 0 min 0 W/m 12,9 km/h (3 Bft) 91,49 %
22.03.2023 06:36 9,7 C 8,9 C 5,6 C 90 % 1009,0 hPa 0,0 l/m 0 min 0 min 0 W/m 6,4 km/h (2 Bft) 91,30 %
22.03.2023 06:38 9,7 C 8,9 C 5,6 C 90 % 1009,0 hPa 0,0 l/m 0 min 0 min 4 W/m 12,9 km/h (3 Bft) 93,62 %
22.03.2023 06:40 9,7 C 9,4 C 5,6 C 90 % 1009,0 hPa 0,0 l/m 0 min 0 min 6 W/m 12,9 km/h (3 Bft) 87,23 %
22.03.2023 06:42 9,7 C 9,4 C 5,6 C 90 % 1009,0 hPa 0,0 l/m 0 min 0 min 7 W/m 9,7 km/h (2 Bft) 48,57 %
22.03.2023 06:44 9,8 C 9,4 C 5,6 C 89 % 1009,0 hPa 0,0 l/m 0 min 0 min 9 W/m 9,7 km/h (2 Bft) 95,74 %
22.03.2023 06:46 9,8 C 9,4 C 5,6 C 89 % 1009,0 hPa 0,0 l/m 0 min 0 min 9 W/m 12,9 km/h (3 Bft) 95,74 %
22.03.2023 06:48 9,8 C 9,4 C 5,6 C 89 % 1008,9 hPa 0,0 l/m 0 min 0 min 11 W/m 6,4 km/h (2 Bft) 95,74 %
22.03.2023 06:50 9,8 C 9,4 C 5,6 C 89 % 1009,0 hPa 0,0 l/m 0 min 0 min 12 W/m 16,1 km/h (3 Bft) 93,48 %
22.03.2023 06:52 9,8 C 9,4 C 6,1 C 89 % 1009,0 hPa 0,0 l/m 0 min 0 min 14 W/m 16,1 km/h (3 Bft) 95,74 %
22.03.2023 06:54 9,8 C 9,4 C 6,1 C 89 % 1009,0 hPa 0,0 l/m 0 min 0 min 14 W/m 6,4 km/h (2 Bft) 97,87 %
22.03.2023 06:56 9,9 C 9,4 C 6,1 C 90 % 1009,0 hPa 0,0 l/m 0 min 0 min 14 W/m 12,9 km/h (3 Bft) 95,74 %
22.03.2023 06:58 9,9 C 9,4 C 6,1 C 90 % 1009,0 hPa 0,0 l/m 0 min 0 min 14 W/m 9,7 km/h (2 Bft) 97,87 %
22.03.2023 07:00 9,9 C 9,4 C 6,1 C 89 % 1009,0 hPa 0,0 l/m 0 min 0 min 14 W/m 12,9 km/h (3 Bft) 95,74 %
22.03.2023 07:02 9,9 C 9,4 C 6,1 C 89 % 1009,0 hPa 0,0 l/m 0 min 0 min 16 W/m 12,9 km/h (3 Bft) 95,65 %
22.03.2023 07:04 9,9 C 9,4 C 6,1 C 89 % 1009,0 hPa 0,0 l/m 0 min 0 min 18 W/m 12,9 km/h (3 Bft) 100,00 %
22.03.2023 07:06 9,9 C 9,4 C 6,1 C 89 % 1009,0 hPa 0,0 l/m 0 min 0 min 20 W/m 12,9 km/h (3 Bft) 100,00 %
22.03.2023 07:08 9,9 C 9,4 C 6,1 C 89 % 1009,0 hPa 0,0 l/m 0 min 0 min 21 W/m 6,4 km/h (2 Bft) 100,00 %
22.03.2023 07:10 10,0 C 9,4 C 6,1 C 89 % 1009,1 hPa 0,0 l/m 0 min 0 min 23 W/m 16,1 km/h (3 Bft) 97,87 %
22.03.2023 07:12 10,0 C 9,4 C 6,1 C 89 % 1009,1 hPa 0,0 l/m 0 min 0 min 25 W/m 12,9 km/h (3 Bft) 100,00 %
22.03.2023 07:14 10,1 C 9,4 C 6,1 C 89 % 1009,0 hPa 0,0 l/m 0 min 0 min 29 W/m 22,5 km/h (4 Bft) 100,00 %
22.03.2023 07:16 10,1 C 9,4 C 6,1 C 89 % 1009,0 hPa 0,0 l/m 0 min 0 min 34 W/m 12,9 km/h (3 Bft) 100,00 %
22.03.2023 07:18 10,1 C 10,0 C 6,1 C 89 % 1009,1 hPa 0,0 l/m 0 min 0 min 40 W/m 16,1 km/h (3 Bft) 100,00 %
22.03.2023 07:20 10,1 C 10,0 C 6,1 C 89 % 1009,0 hPa 0,0 l/m 0 min 0 min 47 W/m 25,7 km/h (4 Bft) 100,00 %
22.03.2023 07:22 10,2 C 10,0 C 6,1 C 89 % 1009,0 hPa 0,0 l/m 0 min 0 min 54 W/m 16,1 km/h (3 Bft) 100,00 %
22.03.2023 07:24 10,3 C 10,0 C 6,1 C 89 % 1009,0 hPa 0,0 l/m 0 min 0 min 57 W/m 19,3 km/h (3 Bft) 97,87 %
22.03.2023 07:26 10,3 C 10,0 C 6,1 C 88 % 1008,9 hPa 0,0 l/m 0 min 0 min 60 W/m 16,1 km/h (3 Bft) 100,00 %
22.03.2023 07:28 10,3 C 10,0 C 6,7 C 88 % 1008,9 hPa 0,0 l/m 0 min 0 min 63 W/m 22,5 km/h (4 Bft) 100,00 %
22.03.2023 07:30 10,4 C 10,0 C 6,7 C 88 % 1008,8 hPa 0,0 l/m 0 min 0 min 63 W/m 19,3 km/h (3 Bft) 100,00 %
22.03.2023 07:32 10,4 C 10,0 C 6,7 C 88 % 1008,8 hPa 0,0 l/m 0 min 0 min 61 W/m 16,1 km/h (3 Bft) 100,00 %
22.03.2023 07:34 10,4 C 10,0 C 6,7 C 88 % 1008,8 hPa 0,0 l/m 0 min 0 min 57 W/m 12,9 km/h (3 Bft) 100,00 %
22.03.2023 07:36 10,5 C 10,0 C 6,7 C 88 % 1008,9 hPa 0,0 l/m 0 min 0 min 53 W/m 12,9 km/h (3 Bft) 100,00 %
22.03.2023 07:38 10,5 C 10,0 C 6,7 C 88 % 1008,8 hPa 0,0 l/m 0 min 0 min 50 W/m 12,9 km/h (3 Bft) 100,00 %
22.03.2023 07:40 10,5 C 10,0 C 6,7 C 88 % 1008,8 hPa 0,0 l/m 0 min 0 min 48 W/m 19,3 km/h (3 Bft) 100,00 %
22.03.2023 07:42 10,6 C 10,0 C 6,7 C 87 % 1008,9 hPa 0,0 l/m 0 min 0 min 47 W/m 16,1 km/h (3 Bft) 97,87 %
22.03.2023 07:44 10,6 C 10,0 C 6,7 C 87 % 1008,9 hPa 0,0 l/m 0 min 0 min 54 W/m 6,4 km/h (2 Bft) 100,00 %
22.03.2023 07:46 10,6 C 10,0 C 6,7 C 87 % 1008,8 hPa 0,0 l/m 0 min 0 min 59 W/m 6,4 km/h (2 Bft) 100,00 %
22.03.2023 07:48 10,6 C 10,0 C 6,7 C 87 % 1008,8 hPa 0,0 l/m 0 min 0 min 53 W/m 6,4 km/h (2 Bft) 97,87 %
22.03.2023 07:50 10,6 C 10,0 C 6,7 C 87 % 1008,7 hPa 0,0 l/m 0 min 0 min 52 W/m 16,1 km/h (3 Bft) 100,00 %
22.03.2023 07:52 10,6 C 10,0 C 6,7 C 87 % 1008,8 hPa 0,0 l/m 0 min 0 min 54 W/m 19,3 km/h (3 Bft) 100,00 %
22.03.2023 07:54 10,7 C 10,6 C 6,7 C 87 % 1008,8 hPa 0,0 l/m 0 min 0 min 59 W/m 19,3 km/h (3 Bft) 100,00 %
22.03.2023 07:56 10,7 C 10,6 C 6,7 C 87 % 1008,7 hPa 0,0 l/m 0 min 0 min 67 W/m 19,3 km/h (3 Bft) 100,00 %
22.03.2023 07:58 10,7 C 10,6 C 6,7 C 87 % 1008,9 hPa 0,0 l/m 0 min 0 min 80 W/m 25,7 km/h (4 Bft) 100,00 %
22.03.2023 08:00 10,7 C 10,6 C 6,7 C 87 % 1008,7 hPa 0,0 l/m 0 min 0 min 90 W/m 19,3 km/h (3 Bft) 100,00 %
22.03.2023 08:02 10,8 C 10,6 C 6,7 C 87 % 1008,7 hPa 0,0 l/m 0 min 0 min 102 W/m 22,5 km/h (4 Bft) 100,00 %
22.03.2023 08:04 10,8 C 10,6 C 6,7 C 87 % 1008,7 hPa 0,0 l/m 0 min 0 min 109 W/m 22,5 km/h (4 Bft) 97,87 %
22.03.2023 08:06 10,9 C 10,6 C 7,2 C 86 % 1008,7 hPa 0,0 l/m 0 min 0 min 113 W/m 19,3 km/h (3 Bft) 97,87 %
22.03.2023 08:08 10,9 C 11,1 C 7,2 C 86 % 1008,8 hPa 0,0 l/m 0 min 0 min 115 W/m 19,3 km/h (3 Bft) 100,00 %
22.03.2023 08:10 11,0 C 11,1 C 7,2 C 86 % 1008,8 hPa 0,0 l/m 0 min 0 min 117 W/m 16,1 km/h (3 Bft) 97,87 %
22.03.2023 08:12 11,0 C 11,1 C 7,2 C 86 % 1008,8 hPa 0,0 l/m 0 min 0 min 120 W/m 25,7 km/h (4 Bft) 100,00 %
22.03.2023 08:14 11,1 C 11,1 C 7,2 C 86 % 1008,7 hPa 0,0 l/m 0 min 0 min 122 W/m 25,7 km/h (4 Bft) 97,87 %
22.03.2023 08:16 11,1 C 11,1 C 7,2 C 86 % 1008,8 hPa 0,0 l/m 0 min 0 min 127 W/m 25,7 km/h (4 Bft) 95,74 %
22.03.2023 08:18 11,2 C 11,1 C 7,2 C 85 % 1008,8 hPa 0,0 l/m 0 min 0 min 127 W/m 19,3 km/h (3 Bft) 97,87 %
22.03.2023 08:20 11,2 C 11,1 C 7,2 C 85 % 1008,8 hPa 0,0 l/m 0 min 0 min 107 W/m 25,7 km/h (4 Bft) 93,62 %
22.03.2023 08:22 11,3 C 11,1 C 7,2 C 85 % 1008,8 hPa 0,0 l/m 0 min 0 min 86 W/m 29,0 km/h (5 Bft) 93,48 %
22.03.2023 08:24 11,3 C 11,1 C 7,2 C 85 % 1008,8 hPa 0,0 l/m 0 min 0 min 75 W/m 29,0 km/h (5 Bft) 93,62 %
22.03.2023 08:26 11,4 C 11,1 C 7,2 C 84 % 1008,8 hPa 0,0 l/m 0 min 0 min 70 W/m 19,3 km/h (3 Bft) 95,74 %
22.03.2023 08:28 11,4 C 11,1 C 7,2 C 84 % 1008,7 hPa 0,0 l/m 0 min 0 min 67 W/m 29,0 km/h (5 Bft) 97,87 %
22.03.2023 08:30 11,4 C 11,1 C 7,2 C 83 % 1008,8 hPa 0,0 l/m 0 min 0 min 57 W/m 29,0 km/h (5 Bft) 97,87 %
22.03.2023 08:32 11,4 C 11,1 C 7,2 C 83 % 1008,8 hPa 0,0 l/m 0 min 0 min 48 W/m 35,4 km/h (5 Bft) 95,74 %
22.03.2023 08:34 11,4 C 11,1 C 7,2 C 83 % 1008,9 hPa 0,0 l/m 0 min 0 min 43 W/m 22,5 km/h (4 Bft) 95,65 %
22.03.2023 08:36 11,5 C 11,1 C 7,2 C 83 % 1008,8 hPa 0,0 l/m 0 min 0 min 37 W/m 41,8 km/h (6 Bft) 52,17 %
22.03.2023 08:38 11,5 C 11,1 C 7,2 C 83 % 1008,7 hPa 0,0 l/m 0 min 0 min 33 W/m 29,0 km/h (5 Bft) 95,74 %
22.03.2023 08:40 11,5 C 11,1 C 7,2 C 83 % 1008,8 hPa 0,0 l/m 0 min 0 min 30 W/m 64,4 km/h (8 Bft) 95,74 %
22.03.2023 08:42 11,5 C 11,1 C 7,2 C 82 % 1008,8 hPa 0,0 l/m 0 min 0 min 35 W/m 45,1 km/h (6 Bft) 93,62 %
22.03.2023 08:44 11,5 C 11,1 C 7,2 C 82 % 1008,8 hPa 0,0 l/m 0 min 0 min 42 W/m 29,0 km/h (5 Bft) 93,62 %
22.03.2023 08:46 11,4 C 11,1 C 7,2 C 82 % 1008,9 hPa 0,0 l/m 0 min 0 min 42 W/m 25,7 km/h (4 Bft) 93,62 %
22.03.2023 08:48 11,4 C 11,1 C 7,2 C 82 % 1008,8 hPa 0,0 l/m 0 min 0 min 49 W/m 22,5 km/h (4 Bft) 91,30 %
22.03.2023 08:50 11,4 C 11,1 C 7,2 C 82 % 1008,8 hPa 0,0 l/m 0 min 0 min 59 W/m 51,5 km/h (7 Bft) 93,62 %
22.03.2023 08:52 11,4 C 11,1 C 7,2 C 82 % 1008,8 hPa 0,0 l/m 0 min 0 min 61 W/m 35,4 km/h (5 Bft) 93,62 %
22.03.2023 08:54 11,4 C 11,1 C 7,2 C 81 % 1008,9 hPa 0,0 l/m 0 min 0 min 80 W/m 35,4 km/h (5 Bft) 100,00 %
22.03.2023 08:56 11,4 C 11,1 C 7,2 C 81 % 1008,9 hPa 0,0 l/m 0 min 0 min 95 W/m 41,8 km/h (6 Bft) 100,00 %
22.03.2023 08:58 11,5 C 11,1 C 7,2 C 81 % 1008,9 hPa 0,0 l/m 0 min 0 min 81 W/m 25,7 km/h (4 Bft) 97,78 %
22.03.2023 09:00 11,5 C 11,1 C 7,2 C 81 % 1008,9 hPa 0,0 l/m 0 min 0 min 81 W/m 32,2 km/h (5 Bft) 95,74 %
22.03.2023 09:02 11,5 C 11,1 C 7,2 C 81 % 1008,9 hPa 0,0 l/m 0 min 0 min 85 W/m 29,0 km/h (5 Bft) 93,62 %
22.03.2023 09:04 11,5 C 11,1 C 7,2 C 82 % 1008,9 hPa 0,0 l/m 0 min 0 min 84 W/m 25,7 km/h (4 Bft) 95,65 %
22.03.2023 09:06 11,5 C 11,1 C 7,2 C 82 % 1009,0 hPa 0,0 l/m 0 min 0 min 85 W/m 29,0 km/h (5 Bft) 91,49 %
22.03.2023 09:08 11,5 C 11,1 C 7,2 C 82 % 1009,0 hPa 0,0 l/m 0 min 0 min 86 W/m 29,0 km/h (5 Bft) 91,49 %
22.03.2023 09:10 11,5 C 11,1 C 7,2 C 82 % 1008,9 hPa 0,0 l/m 0 min 0 min 80 W/m 29,0 km/h (5 Bft) 95,74 %
22.03.2023 09:12 11,5 C 11,1 C 7,2 C 81 % 1009,0 hPa 0,0 l/m 0 min 0 min 67 W/m 29,0 km/h (5 Bft) 95,74 %
22.03.2023 09:14 11,5 C 11,1 C 7,2 C 81 % 1008,9 hPa 0,0 l/m 0 min 0 min 74 W/m 32,2 km/h (5 Bft) 93,62 %
22.03.2023 09:16 11,4 C 11,1 C 7,2 C 81 % 1008,9 hPa 0,0 l/m 0 min 0 min 79 W/m 51,5 km/h (7 Bft) 95,65 %
22.03.2023 09:18 11,4 C 11,1 C 7,2 C 81 % 1008,9 hPa 0,0 l/m 0 min 0 min 93 W/m 35,4 km/h (5 Bft) 95,74 %
22.03.2023 09:20 11,4 C 11,1 C 7,2 C 81 % 1008,9 hPa 0,0 l/m 0 min 0 min 95 W/m 32,2 km/h (5 Bft) 95,74 %
22.03.2023 09:22 11,5 C 11,1 C 7,2 C 81 % 1009,0 hPa 0,0 l/m 0 min 0 min 114 W/m 22,5 km/h (4 Bft) 93,62 %
22.03.2023 09:24 11,5 C 11,1 C 7,2 C 81 % 1009,0 hPa 0,0 l/m 0 min 0 min 140 W/m 25,7 km/h (4 Bft) 97,87 %
22.03.2023 09:26 11,6 C 11,1 C 7,2 C 81 % 1008,9 hPa 0,0 l/m 0 min 0 min 123 W/m 19,3 km/h (3 Bft) 97,87 %
22.03.2023 09:28 11,6 C 11,1 C 7,2 C 81 % 1009,0 hPa 0,0 l/m 0 min 0 min 91 W/m 25,7 km/h (4 Bft) 97,37 %
22.03.2023 09:30 11,6 C 11,1 C 7,2 C 81 % 1009,0 hPa 0,0 l/m 0 min 0 min 103 W/m 32,2 km/h (5 Bft) 96,30 %
22.03.2023 09:32 11,6 C 11,1 C 7,2 C 81 % 1009,0 hPa 0,0 l/m 0 min 0 min 124 W/m 29,0 km/h (5 Bft) 94,00 %
22.03.2023 09:34 11,6 C 11,1 C 7,8 C 81 % 1009,0 hPa 0,0 l/m 0 min 0 min 153 W/m 38,6 km/h (5 Bft) 97,92 %
22.03.2023 09:36 11,6 C 11,7 C 7,8 C 81 % 1009,0 hPa 0,0 l/m 0 min 0 min 196 W/m 25,7 km/h (4 Bft) 97,87 %
22.03.2023 09:38 11,6 C 11,7 C 7,8 C 81 % 1009,0 hPa 0,0 l/m 0 min 0 min 178 W/m 32,2 km/h (5 Bft) 95,74 %
22.03.2023 09:40 11,7 C 11,7 C 7,8 C 81 % 1009,0 hPa 0,0 l/m 0 min 0 min 181 W/m 32,2 km/h (5 Bft) 97,87 %
22.03.2023 09:42 11,7 C 11,7 C 7,8 C 81 % 1009,0 hPa 0,0 l/m 0 min 0 min 179 W/m 45,1 km/h (6 Bft) 95,65 %
22.03.2023 09:44 11,7 C 11,7 C 7,8 C 80 % 1008,9 hPa 0,0 l/m 0 min 0 min 189 W/m 25,7 km/h (4 Bft) 97,87 %
22.03.2023 09:46 11,8 C 12,2 C 7,8 C 80 % 1008,9 hPa 0,0 l/m 0 min 0 min 197 W/m 22,5 km/h (4 Bft) 100,00 %
22.03.2023 09:48 11,8 C 12,8 C 8,3 C 80 % 1009,0 hPa 0,0 l/m 2 min 0 min 283 W/m 22,5 km/h (4 Bft) 100,00 %
22.03.2023 09:50 11,9 C 12,8 C 8,3 C 80 % 1008,9 hPa 0,0 l/m 2 min 0 min 249 W/m 25,7 km/h (4 Bft) 100,00 %
22.03.2023 09:52 12,0 C 12,8 C 8,3 C 80 % 1008,8 hPa 0,0 l/m 0 min 0 min 215 W/m 32,2 km/h (5 Bft) 95,74 %
22.03.2023 09:54 12,1 C 12,8 C 8,3 C 80 % 1008,9 hPa 0,0 l/m 0 min 0 min 218 W/m 25,7 km/h (4 Bft) 100,00 %
22.03.2023 09:56 12,1 C 12,2 C 8,3 C 79 % 1008,9 hPa 0,0 l/m 0 min 0 min 188 W/m 38,6 km/h (5 Bft) 100,00 %
22.03.2023 09:58 12,1 C 12,2 C 8,3 C 79 % 1008,8 hPa 0,0 l/m 0 min 0 min 169 W/m 22,5 km/h (4 Bft) 100,00 %
22.03.2023 10:00 12,1 C 12,2 C 8,3 C 79 % 1008,9 hPa 0,0 l/m 0 min 0 min 153 W/m 19,3 km/h (3 Bft) 95,74 %
22.03.2023 10:02 12,1 C 12,2 C 7,8 C 79 % 1008,9 hPa 0,0 l/m 0 min 0 min 147 W/m 25,7 km/h (4 Bft) 100,00 %
22.03.2023 10:04 12,1 C 12,2 C 7,8 C 79 % 1008,9 hPa 0,0 l/m 0 min 0 min 143 W/m 29,0 km/h (5 Bft) 100,00 %
22.03.2023 10:06 12,1 C 12,2 C 7,8 C 79 % 1008,8 hPa 0,0 l/m 0 min 0 min 206 W/m 45,1 km/h (6 Bft) 100,00 %
22.03.2023 10:08 12,1 C 12,2 C 8,3 C 79 % 1008,8 hPa 0,0 l/m 2 min 0 min 270 W/m 38,6 km/h (5 Bft) 95,65 %
22.03.2023 10:10 12,1 C 12,2 C 8,3 C 78 % 1008,8 hPa 0,0 l/m 2 min 0 min 258 W/m 35,4 km/h (5 Bft) 97,87 %
22.03.2023 10:12 12,1 C 12,2 C 8,3 C 79 % 1008,8 hPa 0,0 l/m 0 min 0 min 194 W/m 25,7 km/h (4 Bft) 100,00 %
22.03.2023 10:14 12,2 C 12,2 C 8,3 C 79 % 1008,8 hPa 0,0 l/m 0 min 0 min 160 W/m 22,5 km/h (4 Bft) 97,87 %
22.03.2023 10:16 12,2 C 12,2 C 8,3 C 78 % 1008,9 hPa 0,0 l/m 0 min 0 min 171 W/m 29,0 km/h (5 Bft) 100,00 %
22.03.2023 10:18 12,2 C 12,2 C 8,3 C 78 % 1008,8 hPa 0,0 l/m 0 min 0 min 153 W/m 35,4 km/h (5 Bft) 97,87 %
22.03.2023 10:20 12,2 C 12,2 C 8,3 C 78 % 1008,9 hPa 0,0 l/m 0 min 0 min 134 W/m 22,5 km/h (4 Bft) 97,87 %
22.03.2023 10:22 12,1 C 11,7 C 7,8 C 78 % 1008,8 hPa 0,0 l/m 0 min 0 min 98 W/m 22,5 km/h (4 Bft) 95,65 %
22.03.2023 10:24 12,1 C 11,7 C 7,8 C 77 % 1008,7 hPa 0,0 l/m 0 min 0 min 100 W/m 32,2 km/h (5 Bft) 97,87 %
22.03.2023 10:26 12,1 C 11,7 C 7,8 C 77 % 1008,8 hPa 0,0 l/m 0 min 0 min 132 W/m 38,6 km/h (5 Bft) 95,74 %
22.03.2023 10:28 12,1 C 11,7 C 7,8 C 78 % 1008,8 hPa 0,0 l/m 0 min 0 min 160 W/m 25,7 km/h (4 Bft) 95,74 %
22.03.2023 10:30 12,1 C 12,2 C 7,8 C 78 % 1008,7 hPa 0,0 l/m 0 min 0 min 182 W/m 25,7 km/h (4 Bft) 97,87 %
22.03.2023 10:32 12,1 C 12,2 C 7,8 C 77 % 1008,8 hPa 0,0 l/m 0 min 0 min 164 W/m 38,6 km/h (5 Bft) 97,87 %
22.03.2023 10:34 12,1 C 11,7 C 7,8 C 77 % 1008,8 hPa 0,0 l/m 0 min 0 min 125 W/m 29,0 km/h (5 Bft) 97,87 %
22.03.2023 10:36 12,1 C 12,2 C 7,8 C 77 % 1008,8 hPa 0,0 l/m 0 min 0 min 164 W/m 32,2 km/h (5 Bft) 97,83 %
22.03.2023 10:38 12,1 C 12,2 C 8,3 C 77 % 1008,8 hPa 0,0 l/m 0 min 0 min 226 W/m 25,7 km/h (4 Bft) 97,87 %
22.03.2023 10:40 12,1 C 12,2 C 8,3 C 77 % 1008,7 hPa 0,0 l/m 0 min 0 min 200 W/m 35,4 km/h (5 Bft) 95,74 %
22.03.2023 10:42 12,1 C 12,2 C 8,3 C 76 % 1008,8 hPa 0,0 l/m 0 min 0 min 186 W/m 35,4 km/h (5 Bft) 97,87 %
22.03.2023 10:44 12,1 C 12,2 C 8,3 C 77 % 1008,9 hPa 0,0 l/m 0 min 0 min 198 W/m 29,0 km/h (5 Bft) 97,87 %
22.03.2023 10:46 12,2 C 12,2 C 8,3 C 77 % 1008,8 hPa 0,0 l/m 0 min 0 min 231 W/m 25,7 km/h (4 Bft) 97,87 %
22.03.2023 10:48 12,2 C 12,2 C 8,3 C 77 % 1008,8 hPa 0,0 l/m 0 min 0 min 214 W/m 25,7 km/h (4 Bft) 97,87 %
22.03.2023 10:50 12,2 C 12,2 C 8,3 C 77 % 1008,8 hPa 0,0 l/m 0 min 0 min 205 W/m 25,7 km/h (4 Bft) 95,65 %
22.03.2023 10:52 12,3 C 12,2 C 8,3 C 77 % 1008,8 hPa 0,0 l/m 0 min 0 min 195 W/m 29,0 km/h (5 Bft) 97,87 %
22.03.2023 10:54 12,3 C 12,2 C 8,3 C 76 % 1008,8 hPa 0,0 l/m 0 min 0 min 220 W/m 32,2 km/h (5 Bft) 97,87 %
22.03.2023 10:56 12,3 C 12,2 C 8,3 C 76 % 1008,7 hPa 0,0 l/m 0 min 0 min 218 W/m 29,0 km/h (5 Bft) 100,00 %
22.03.2023 10:58 12,3 C 12,2 C 8,3 C 76 % 1008,7 hPa 0,0 l/m 0 min 0 min 208 W/m 29,0 km/h (5 Bft) 97,87 %
22.03.2023 11:00 12,3 C 12,2 C 8,3 C 75 % 1008,7 hPa 0,0 l/m 0 min 0 min 216 W/m 41,8 km/h (6 Bft) 97,14 %
22.03.2023 11:02 12,4 C 12,8 C 8,3 C 75 % 1008,6 hPa 0,0 l/m 0 min 0 min 250 W/m 41,8 km/h (6 Bft) 98,31 %
22.03.2023 11:04 12,4 C 12,8 C 8,9 C 75 % 1008,6 hPa 0,0 l/m 2 min 0 min 298 W/m 45,1 km/h (6 Bft) 100,00 %
22.03.2023 11:06 12,5 C 13,3 C 8,9 C 75 % 1008,6 hPa 0,0 l/m 2 min 0 min 347 W/m 29,0 km/h (5 Bft) 100,00 %
22.03.2023 11:08 12,6 C 13,3 C 8,9 C 74 % 1008,7 hPa 0,0 l/m 2 min 0 min 326 W/m 29,0 km/h (5 Bft) 100,00 %
22.03.2023 11:10 12,6 C 13,3 C 9,4 C 74 % 1008,6 hPa 0,0 l/m 2 min 0 min 302 W/m 35,4 km/h (5 Bft) 100,00 %
22.03.2023 11:12 12,7 C 13,3 C 9,4 C 74 % 1008,6 hPa 0,0 l/m 2 min 0 min 318 W/m 22,5 km/h (4 Bft) 100,00 %
22.03.2023 11:14 12,7 C 13,3 C 9,4 C 74 % 1008,5 hPa 0,0 l/m 2 min 0 min 327 W/m 38,6 km/h (5 Bft) 100,00 %
22.03.2023 11:16 12,8 C 13,3 C 9,4 C 74 % 1008,6 hPa 0,0 l/m 0 min 0 min 281 W/m 41,8 km/h (6 Bft) 100,00 %
22.03.2023 11:18 12,8 C 13,3 C 8,9 C 74 % 1008,5 hPa 0,0 l/m 0 min 0 min 239 W/m 38,6 km/h (5 Bft) 100,00 %
22.03.2023 11:20 12,8 C 12,8 C 8,9 C 74 % 1008,5 hPa 0,0 l/m 0 min 0 min 214 W/m 22,5 km/h (4 Bft) 95,74 %
22.03.2023 11:22 12,8 C 12,8 C 8,9 C 74 % 1008,5 hPa 0,0 l/m 0 min 0 min 196 W/m 25,7 km/h (4 Bft) 100,00 %
22.03.2023 11:24 12,8 C 12,8 C 8,9 C 74 % 1008,5 hPa 0,0 l/m 0 min 0 min 172 W/m 51,5 km/h (7 Bft) 97,87 %
22.03.2023 11:26 12,8 C 12,8 C 8,9 C 74 % 1008,6 hPa 0,0 l/m 0 min 0 min 155 W/m 25,7 km/h (4 Bft) 100,00 %
22.03.2023 11:28 12,8 C 12,8 C 8,9 C 73 % 1008,6 hPa 0,0 l/m 0 min 0 min 173 W/m 38,6 km/h (5 Bft) 97,87 %
22.03.2023 11:30 12,8 C 12,8 C 8,9 C 74 % 1008,6 hPa 0,0 l/m 0 min 0 min 147 W/m 19,3 km/h (3 Bft) 97,87 %
22.03.2023 11:32 12,8 C 12,8 C 8,9 C 74 % 1008,6 hPa 0,0 l/m 0 min 0 min 146 W/m 22,5 km/h (4 Bft) 100,00 %
22.03.2023 11:34 12,7 C 12,2 C 8,9 C 74 % 1008,6 hPa 0,0 l/m 0 min 0 min 142 W/m 35,4 km/h (5 Bft) 97,83 %
22.03.2023 11:36 12,7 C 12,2 C 8,9 C 74 % 1008,6 hPa 0,0 l/m 0 min 0 min 146 W/m 32,2 km/h (5 Bft) 100,00 %
22.03.2023 11:38 12,7 C 12,2 C 8,9 C 74 % 1008,6 hPa 0,0 l/m 0 min 0 min 170 W/m 16,1 km/h (3 Bft) 97,87 %
22.03.2023 11:40 12,7 C 12,8 C 8,9 C 74 % 1008,6 hPa 0,0 l/m 0 min 0 min 173 W/m 19,3 km/h (3 Bft) 95,74 %
22.03.2023 11:42 12,7 C 12,8 C 8,9 C 74 % 1008,7 hPa 0,0 l/m 0 min 0 min 162 W/m 35,4 km/h (5 Bft) 95,74 %
22.03.2023 11:44 12,7 C 12,8 C 8,9 C 74 % 1008,6 hPa 0,0 l/m 0 min 0 min 180 W/m 29,0 km/h (5 Bft) 93,62 %
22.03.2023 11:46 12,7 C 12,2 C 8,9 C 73 % 1008,6 hPa 0,0 l/m 0 min 0 min 198 W/m 45,1 km/h (6 Bft) 93,62 %
22.03.2023 11:48 12,7 C 12,2 C 8,9 C 73 % 1008,6 hPa 0,0 l/m 0 min 0 min 199 W/m 32,2 km/h (5 Bft) 95,65 %
22.03.2023 11:50 12,6 C 12,2 C 8,9 C 73 % 1008,6 hPa 0,0 l/m 0 min 0 min 188 W/m 32,2 km/h (5 Bft) 93,62 %
22.03.2023 11:52 12,6 C 12,2 C 8,9 C 73 % 1008,5 hPa 0,0 l/m 0 min 0 min 185 W/m 25,7 km/h (4 Bft) 95,74 %
22.03.2023 11:54 12,6 C 12,2 C 8,9 C 73 % 1008,6 hPa 0,0 l/m 0 min 0 min 196 W/m 45,1 km/h (6 Bft) 93,62 %
22.03.2023 11:56 12,6 C 12,8 C 8,9 C 74 % 1008,5 hPa 0,0 l/m 0 min 0 min 205 W/m 38,6 km/h (5 Bft) 95,74 %
22.03.2023 11:58 12,6 C 12,8 C 8,9 C 73 % 1008,5 hPa 0,0 l/m 0 min 0 min 204 W/m 35,4 km/h (5 Bft) 93,62 %
22.03.2023 12:00 12,6 C 12,8 C 8,9 C 73 % 1008,5 hPa 0,0 l/m 0 min 0 min 201 W/m 29,0 km/h (5 Bft) 93,48 %
22.03.2023 12:02 12,6 C 12,8 C 8,9 C 73 % 1008,4 hPa 0,0 l/m 0 min 0 min 196 W/m 38,6 km/h (5 Bft) 93,62 %
22.03.2023 12:04 12,7 C 12,8 C 8,9 C 74 % 1008,5 hPa 0,0 l/m 0 min 0 min 188 W/m 25,7 km/h (4 Bft) 95,74 %
22.03.2023 12:07 12,7 C 12,2 C 8,9 C 74 % 1008,5 hPa 0,0 l/m 0 min 0 min 182 W/m 32,2 km/h (5 Bft) 95,83 %
22.03.2023 12:08 12,6 C 12,2 C 8,9 C 74 % 1008,5 hPa 0,0 l/m 0 min 0 min 171 W/m 25,7 km/h (4 Bft) 95,83 %
22.03.2023 12:12 12,6 C 12,2 C 8,3 C 73 % 1008,5 hPa 0,0 l/m 0 min 0 min 152 W/m 57,9 km/h (7 Bft) 94,55 %
22.03.2023 12:14 12,6 C 12,2 C 8,3 C 73 % 1008,5 hPa 0,0 l/m 0 min 0 min 144 W/m 38,6 km/h (5 Bft) 95,65 %
22.03.2023 12:16 12,7 C 12,2 C 8,3 C 74 % 1008,5 hPa 0,0 l/m 0 min 0 min 146 W/m 29,0 km/h (5 Bft) 95,74 %
22.03.2023 12:18 12,7 C 12,2 C 8,3 C 74 % 1008,5 hPa 0,0 l/m 0 min 0 min 146 W/m 35,4 km/h (5 Bft) 93,62 %
22.03.2023 12:20 12,7 C 12,2 C 8,3 C 74 % 1008,5 hPa 0,0 l/m 0 min 0 min 140 W/m 25,7 km/h (4 Bft) 95,74 %
22.03.2023 12:22 12,7 C 12,2 C 8,3 C 74 % 1008,5 hPa 0,0 l/m 0 min 0 min 150 W/m 25,7 km/h (4 Bft) 91,49 %
22.03.2023 12:24 12,7 C 12,2 C 8,3 C 74 % 1008,5 hPa 0,0 l/m 0 min 0 min 157 W/m 29,0 km/h (5 Bft) 93,62 %
22.03.2023 12:26 12,7 C 12,2 C 8,3 C 74 % 1008,4 hPa 0,0 l/m 0 min 0 min 166 W/m 29,0 km/h (5 Bft) 95,74 %
22.03.2023 12:28 12,7 C 12,2 C 8,3 C 73 % 1008,5 hPa 0,0 l/m 0 min 0 min 178 W/m 35,4 km/h (5 Bft) 95,65 %
22.03.2023 12:30 12,7 C 12,2 C 8,9 C 72 % 1008,5 hPa 0,0 l/m 0 min 0 min 177 W/m 41,8 km/h (6 Bft) 93,62 %
22.03.2023 12:32 12,7 C 12,8 C 8,9 C 72 % 1008,5 hPa 0,0 l/m 0 min 0 min 168 W/m 25,7 km/h (4 Bft) 91,49 %
22.03.2023 12:34 12,7 C 12,8 C 8,9 C 73 % 1008,5 hPa 0,0 l/m 0 min 0 min 186 W/m 22,5 km/h (4 Bft) 93,62 %
22.03.2023 12:36 12,8 C 12,8 C 8,9 C 73 % 1008,5 hPa 0,0 l/m 0 min 0 min 184 W/m 25,7 km/h (4 Bft) 98,00 %
22.03.2023 12:38 12,8 C 12,8 C 8,9 C 73 % 1008,5 hPa 0,0 l/m 0 min 0 min 173 W/m 25,7 km/h (4 Bft) 97,87 %
22.03.2023 12:40 12,8 C 12,8 C 8,9 C 74 % 1008,5 hPa 0,0 l/m 0 min 0 min 152 W/m 19,3 km/h (3 Bft) 97,87 %
22.03.2023 12:42 12,9 C 12,8 C 8,9 C 74 % 1008,5 hPa 0,0 l/m 0 min 0 min 145 W/m 19,3 km/h (3 Bft) 95,74 %
22.03.2023 12:44 12,9 C 12,8 C 8,9 C 74 % 1008,5 hPa 0,0 l/m 0 min 0 min 159 W/m 32,2 km/h (5 Bft) 97,87 %
22.03.2023 12:46 12,9 C 12,8 C 8,9 C 73 % 1008,4 hPa 0,0 l/m 0 min 0 min 159 W/m 25,7 km/h (4 Bft) 97,87 %
22.03.2023 12:48 12,9 C 12,8 C 8,9 C 72 % 1008,5 hPa 0,0 l/m 0 min 0 min 163 W/m 51,5 km/h (7 Bft) 97,87 %
22.03.2023 12:50 12,8 C 12,8 C 8,9 C 72 % 1008,4 hPa 0,0 l/m 0 min 0 min 171 W/m 35,4 km/h (5 Bft) 97,87 %
22.03.2023 12:52 12,8 C 12,8 C 8,9 C 72 % 1008,4 hPa 0,0 l/m 0 min 0 min 181 W/m 29,0 km/h (5 Bft) 97,87 %
22.03.2023 12:54 12,8 C 12,8 C 8,9 C 72 % 1008,4 hPa 0,0 l/m 0 min 0 min 184 W/m 38,6 km/h (5 Bft) 97,83 %
22.03.2023 12:56 12,8 C 12,8 C 8,9 C 72 % 1008,4 hPa 0,0 l/m 0 min 0 min 177 W/m 38,6 km/h (5 Bft) 93,62 %
22.03.2023 12:58 12,9 C 12,8 C 8,9 C 72 % 1008,4 hPa 0,0 l/m 0 min 0 min 189 W/m 38,6 km/h (5 Bft) 100,00 %
22.03.2023 13:00 12,9 C 12,8 C 8,9 C 72 % 1008,3 hPa 0,0 l/m 0 min 0 min 205 W/m 25,7 km/h (4 Bft) 97,87 %
22.03.2023 13:02 12,9 C 12,8 C 8,9 C 72 % 1008,3 hPa 0,0 l/m 0 min 0 min 213 W/m 32,2 km/h (5 Bft) 97,87 %
22.03.2023 13:04 12,9 C 12,8 C 8,9 C 72 % 1008,3 hPa 0,0 l/m 0 min 0 min 200 W/m 25,7 km/h (4 Bft) 100,00 %
22.03.2023 13:06 12,9 C 12,8 C 8,9 C 72 % 1008,3 hPa 0,0 l/m 0 min 0 min 203 W/m 22,5 km/h (4 Bft) 100,00 %
22.03.2023 13:08 12,9 C 12,8 C 8,9 C 72 % 1008,3 hPa 0,0 l/m 0 min 0 min 181 W/m 25,7 km/h (4 Bft) 100,00 %
22.03.2023 13:10 13,0 C 12,8 C 8,9 C 72 % 1008,3 hPa 0,0 l/m 0 min 0 min 157 W/m 19,3 km/h (3 Bft) 97,87 %
22.03.2023 13:12 13,0 C 12,8 C 8,9 C 72 % 1008,2 hPa 0,0 l/m 0 min 0 min 139 W/m 35,4 km/h (5 Bft) 100,00 %
22.03.2023 13:14 12,9 C 12,8 C 8,9 C 72 % 1008,3 hPa 0,0 l/m 0 min 2 min 129 W/m 25,7 km/h (4 Bft) 100,00 %
22.03.2023 13:16 13,0 C 12,8 C 8,9 C 72 % 1008,3 hPa 0,0 l/m 0 min 0 min 134 W/m 16,1 km/h (3 Bft) 97,87 %
22.03.2023 13:18 13,0 C 12,8 C 8,9 C 72 % 1008,2 hPa 0,0 l/m 0 min 0 min 135 W/m 19,3 km/h (3 Bft) 100,00 %
22.03.2023 13:20 13,0 C 12,8 C 8,9 C 72 % 1008,2 hPa 0,0 l/m 0 min 0 min 117 W/m 22,5 km/h (4 Bft) 100,00 %
22.03.2023 13:22 13,0 C 12,8 C 8,9 C 72 % 1008,2 hPa 0,0 l/m 0 min 0 min 111 W/m 32,2 km/h (5 Bft) 100,00 %
22.03.2023 13:24 12,9 C 12,8 C 8,9 C 72 % 1008,2 hPa 0,0 l/m 0 min 0 min 104 W/m 25,7 km/h (4 Bft) 100,00 %
22.03.2023 13:26 12,9 C 12,2 C 8,9 C 72 % 1008,2 hPa 0,0 l/m 0 min 0 min 100 W/m 22,5 km/h (4 Bft) 100,00 %
22.03.2023 13:28 12,9 C 12,2 C 8,3 C 72 % 1008,3 hPa 0,0 l/m 0 min 0 min 96 W/m 29,0 km/h (5 Bft) 100,00 %
22.03.2023 13:30 12,9 C 12,2 C 8,3 C 73 % 1008,2 hPa 0,0 l/m 0 min 2 min 98 W/m 32,2 km/h (5 Bft) 100,00 %
22.03.2023 13:32 12,9 C 12,2 C 8,3 C 73 % 1008,2 hPa 0,0 l/m 0 min 0 min 96 W/m 29,0 km/h (5 Bft) 100,00 %
22.03.2023 13:34 12,9 C 12,2 C 8,3 C 73 % 1008,3 hPa 0,0 l/m 0 min 0 min 86 W/m 22,5 km/h (4 Bft) 100,00 %
22.03.2023 13:36 12,8 C 12,2 C 8,3 C 73 % 1008,3 hPa 0,0 l/m 0 min 0 min 82 W/m 32,2 km/h (5 Bft) 100,00 %
22.03.2023 13:38 12,8 C 12,2 C 8,3 C 73 % 1008,3 hPa 0,0 l/m 0 min 0 min 79 W/m 35,4 km/h (5 Bft) 100,00 %
22.03.2023 13:40 12,8 C 12,2 C 8,3 C 73 % 1008,3 hPa 0,0 l/m 0 min 0 min 85 W/m 32,2 km/h (5 Bft) 100,00 %
22.03.2023 13:42 12,8 C 12,2 C 8,3 C 74 % 1008,3 hPa 0,0 l/m 0 min 0 min 94 W/m 25,7 km/h (4 Bft) 100,00 %
22.03.2023 13:44 12,8 C 12,2 C 8,3 C 74 % 1008,3 hPa 0,0 l/m 0 min 0 min 91 W/m 22,5 km/h (4 Bft) 100,00 %
22.03.2023 13:46 12,8 C 12,2 C 8,3 C 74 % 1008,3 hPa 0,0 l/m 0 min 0 min 92 W/m 22,5 km/h (4 Bft) 100,00 %
22.03.2023 13:48 12,9 C 12,2 C 8,3 C 74 % 1008,3 hPa 0,0 l/m 0 min 0 min 96 W/m 22,5 km/h (4 Bft) 97,87 %
22.03.2023 13:50 12,9 C 12,2 C 8,9 C 74 % 1008,3 hPa 0,0 l/m 0 min 0 min 96 W/m 22,5 km/h (4 Bft) 100,00 %
22.03.2023 13:52 12,9 C 12,2 C 8,9 C 73 % 1008,2 hPa 0,0 l/m 0 min 0 min 102 W/m 35,4 km/h (5 Bft) 100,00 %
22.03.2023 13:54 12,9 C 12,8 C 8,9 C 74 % 1008,2 hPa 0,0 l/m 0 min 0 min 109 W/m 25,7 km/h (4 Bft) 97,87 %
22.03.2023 13:56 12,9 C 12,8 C 8,9 C 74 % 1008,2 hPa 0,0 l/m 0 min 0 min 121 W/m 19,3 km/h (3 Bft) 100,00 %
22.03.2023 13:58 12,9 C 12,8 C 8,9 C 74 % 1008,3 hPa 0,0 l/m 0 min 0 min 116 W/m 32,2 km/h (5 Bft) 97,87 %
22.03.2023 14:00 13,0 C 12,8 C 8,9 C 74 % 1008,2 hPa 0,0 l/m 0 min 0 min 108 W/m 32,2 km/h (5 Bft) 100,00 %
22.03.2023 14:02 13,0 C 12,8 C 8,9 C 74 % 1008,2 hPa 0,0 l/m 0 min 0 min 119 W/m 19,3 km/h (3 Bft) 97,87 %
22.03.2023 14:04 13,1 C 12,8 C 8,9 C 74 % 1008,2 hPa 0,0 l/m 0 min 0 min 130 W/m 22,5 km/h (4 Bft) 97,87 %
22.03.2023 14:06 13,1 C 12,8 C 8,9 C 74 % 1008,2 hPa 0,0 l/m 0 min 0 min 127 W/m 12,9 km/h (3 Bft) 95,31 %
22.03.2023 14:08 13,1 C 12,8 C 8,9 C 74 % 1008,2 hPa 0,0 l/m 0 min 0 min 124 W/m 29,0 km/h (5 Bft) 100,00 %
22.03.2023 14:10 13,1 C 12,8 C 8,9 C 73 % 1008,2 hPa 0,0 l/m 0 min 0 min 111 W/m 45,1 km/h (6 Bft) 100,00 %
22.03.2023 14:12 13,1 C 12,8 C 8,9 C 73 % 1008,1 hPa 0,0 l/m 0 min 0 min 103 W/m 25,7 km/h (4 Bft) 100,00 %
22.03.2023 14:14 13,1 C 12,8 C 8,9 C 73 % 1008,1 hPa 0,0 l/m 0 min 0 min 110 W/m 41,8 km/h (6 Bft) 95,74 %
22.03.2023 14:16 13,1 C 12,8 C 8,9 C 73 % 1008,2 hPa 0,0 l/m 0 min 0 min 104 W/m 29,0 km/h (5 Bft) 100,00 %
22.03.2023 14:18 13,1 C 12,8 C 8,9 C 73 % 1008,2 hPa 0,0 l/m 0 min 0 min 94 W/m 35,4 km/h (5 Bft) 100,00 %
22.03.2023 14:20 13,1 C 12,8 C 8,9 C 74 % 1008,2 hPa 0,0 l/m 0 min 0 min 85 W/m 29,0 km/h (5 Bft) 95,74 %
22.03.2023 14:22 13,2 C 12,8 C 8,9 C 73 % 1008,2 hPa 0,0 l/m 0 min 0 min 92 W/m 29,0 km/h (5 Bft) 97,56 %
22.03.2023 14:24 13,2 C 12,8 C 8,9 C 73 % 1008,1 hPa 0,0 l/m 0 min 0 min 107 W/m 25,7 km/h (4 Bft) 97,87 %
22.03.2023 14:26 13,2 C 12,8 C 8,9 C 74 % 1008,1 hPa 0,0 l/m 0 min 0 min 119 W/m 19,3 km/h (3 Bft) 93,62 %
22.03.2023 14:28 13,2 C 12,8 C 8,9 C 73 % 1008,1 hPa 0,0 l/m 0 min 0 min 116 W/m 22,5 km/h (4 Bft) 93,62 %
22.03.2023 14:30 13,2 C 12,8 C 8,9 C 74 % 1008,1 hPa 0,0 l/m 0 min 0 min 100 W/m 22,5 km/h (4 Bft) 95,74 %
22.03.2023 14:32 13,2 C 12,8 C 8,9 C 73 % 1008,1 hPa 0,0 l/m 0 min 0 min 99 W/m 32,2 km/h (5 Bft) 97,87 %
22.03.2023 14:34 13,2 C 12,8 C 8,9 C 73 % 1008,0 hPa 0,0 l/m 0 min 0 min 96 W/m 29,0 km/h (5 Bft) 95,65 %
22.03.2023 14:36 13,2 C 12,8 C 8,9 C 73 % 1008,1 hPa 0,0 l/m 0 min 0 min 93 W/m 22,5 km/h (4 Bft) 89,36 %
22.03.2023 14:38 13,3 C 12,8 C 8,9 C 73 % 1007,9 hPa 0,0 l/m 0 min 0 min 106 W/m 19,3 km/h (3 Bft) 92,45 %
22.03.2023 14:40 13,3 C 12,8 C 8,9 C 74 % 1007,9 hPa 0,0 l/m 0 min 0 min 133 W/m 35,4 km/h (5 Bft) 96,00 %
22.03.2023 14:42 13,3 C 12,8 C 8,9 C 73 % 1007,9 hPa 0,0 l/m 0 min 0 min 153 W/m 25,7 km/h (4 Bft) 91,49 %
22.03.2023 14:44 13,3 C 12,8 C 8,9 C 74 % 1007,9 hPa 0,0 l/m 0 min 0 min 132 W/m 25,7 km/h (4 Bft) 93,48 %
22.03.2023 14:46 13,3 C 12,8 C 8,9 C 73 % 1007,9 hPa 0,0 l/m 0 min 0 min 122 W/m 25,7 km/h (4 Bft) 93,62 %
22.03.2023 14:48 13,3 C 12,8 C 8,9 C 73 % 1007,9 hPa 0,0 l/m 0 min 0 min 129 W/m 29,0 km/h (5 Bft) 93,62 %
22.03.2023 14:50 13,4 C 12,8 C 8,9 C 73 % 1007,8 hPa 0,0 l/m 0 min 0 min 131 W/m 29,0 km/h (5 Bft) 93,62 %
22.03.2023 14:52 13,4 C 12,8 C 8,9 C 73 % 1007,8 hPa 0,0 l/m 0 min 0 min 133 W/m 22,5 km/h (4 Bft) 91,49 %
22.03.2023 14:54 13,4 C 13,3 C 8,9 C 73 % 1007,8 hPa 0,0 l/m 0 min 0 min 142 W/m 32,2 km/h (5 Bft) 91,49 %
22.03.2023 14:56 13,4 C 13,3 C 9,4 C 73 % 1007,7 hPa 0,0 l/m 0 min 0 min 146 W/m 22,5 km/h (4 Bft) 93,62 %
22.03.2023 14:58 13,5 C 13,3 C 9,4 C 73 % 1007,7 hPa 0,0 l/m 0 min 0 min 140 W/m 22,5 km/h (4 Bft) 95,65 %
22.03.2023 15:00 13,5 C 13,3 C 9,4 C 73 % 1007,7 hPa 0,0 l/m 0 min 0 min 133 W/m 25,7 km/h (4 Bft) 95,12 %
22.03.2023 15:02 13,6 C 13,3 C 9,4 C 73 % 1007,7 hPa 0,0 l/m 0 min 0 min 108 W/m 35,4 km/h (5 Bft) 93,62 %
22.03.2023 15:04 13,6 C 13,3 C 9,4 C 73 % 1007,6 hPa 0,0 l/m 0 min 0 min 102 W/m 22,5 km/h (4 Bft) 92,45 %
22.03.2023 15:06 13,6 C 13,3 C 9,4 C 73 % 1007,6 hPa 0,0 l/m 0 min 0 min 101 W/m 25,7 km/h (4 Bft) 95,74 %
22.03.2023 15:08 13,6 C 13,3 C 9,4 C 73 % 1007,6 hPa 0,0 l/m 0 min 0 min 103 W/m 19,3 km/h (3 Bft) 95,74 %
22.03.2023 15:10 13,6 C 13,3 C 9,4 C 73 % 1007,5 hPa 0,0 l/m 0 min 0 min 107 W/m 25,7 km/h (4 Bft) 97,87 %
22.03.2023 15:12 13,6 C 13,3 C 9,4 C 73 % 1007,5 hPa 0,0 l/m 0 min 0 min 110 W/m 35,4 km/h (5 Bft) 97,83 %
22.03.2023 15:14 13,6 C 13,3 C 9,4 C 73 % 1007,5 hPa 0,0 l/m 0 min 0 min 116 W/m 29,0 km/h (5 Bft) 93,62 %
22.03.2023 15:16 13,6 C 13,3 C 9,4 C 73 % 1007,5 hPa 0,0 l/m 0 min 0 min 114 W/m 22,5 km/h (4 Bft) 97,87 %
22.03.2023 15:18 13,6 C 13,3 C 9,4 C 72 % 1007,6 hPa 0,0 l/m 0 min 0 min 114 W/m 29,0 km/h (5 Bft) 97,87 %
22.03.2023 15:20 13,6 C 13,3 C 9,4 C 73 % 1007,6 hPa 0,0 l/m 0 min 0 min 112 W/m 22,5 km/h (4 Bft) 97,87 %
22.03.2023 15:22 13,7 C 13,3 C 9,4 C 73 % 1007,6 hPa 0,0 l/m 0 min 0 min 109 W/m 29,0 km/h (5 Bft) 97,87 %
22.03.2023 15:24 13,7 C 13,3 C 9,4 C 73 % 1007,6 hPa 0,0 l/m 0 min 0 min 102 W/m 35,4 km/h (5 Bft) 97,87 %
22.03.2023 15:26 13,7 C 13,3 C 9,4 C 72 % 1007,6 hPa 0,0 l/m 0 min 0 min 89 W/m 41,8 km/h (6 Bft) 97,83 %
22.03.2023 15:28 13,7 C 13,3 C 9,4 C 72 % 1007,5 hPa 0,0 l/m 0 min 0 min 88 W/m 25,7 km/h (4 Bft) 97,87 %
22.03.2023 15:30 13,7 C 13,3 C 9,4 C 72 % 1007,5 hPa 0,0 l/m 0 min 0 min 88 W/m 29,0 km/h (5 Bft) 97,87 %
22.03.2023 15:32 13,7 C 13,3 C 9,4 C 73 % 1007,5 hPa 0,0 l/m 0 min 0 min 84 W/m 19,3 km/h (3 Bft) 97,87 %
22.03.2023 15:34 13,7 C 13,3 C 9,4 C 73 % 1007,5 hPa 0,0 l/m 0 min 0 min 85 W/m 29,0 km/h (5 Bft) 97,87 %
22.03.2023 15:36 13,7 C 13,3 C 9,4 C 73 % 1007,5 hPa 0,0 l/m 0 min 0 min 89 W/m 22,5 km/h (4 Bft) 95,74 %
22.03.2023 15:38 13,7 C 13,3 C 9,4 C 73 % 1007,5 hPa 0,0 l/m 0 min 0 min 95 W/m 25,7 km/h (4 Bft) 100,00 %
22.03.2023 15:40 13,7 C 13,3 C 9,4 C 73 % 1007,4 hPa 0,0 l/m 0 min 0 min 98 W/m 35,4 km/h (5 Bft) 100,00 %
22.03.2023 15:42 13,7 C 13,3 C 9,4 C 73 % 1007,5 hPa 0,0 l/m 0 min 0 min 103 W/m 29,0 km/h (5 Bft) 100,00 %
22.03.2023 15:44 13,7 C 13,3 C 9,4 C 73 % 1007,4 hPa 0,0 l/m 0 min 0 min 95 W/m 38,6 km/h (5 Bft) 100,00 %
22.03.2023 15:46 13,7 C 13,3 C 9,4 C 73 % 1007,4 hPa 0,0 l/m 0 min 0 min 84 W/m 29,0 km/h (5 Bft) 100,00 %
22.03.2023 15:48 13,7 C 13,3 C 9,4 C 73 % 1007,5 hPa 0,0 l/m 0 min 0 min 78 W/m 29,0 km/h (5 Bft) 100,00 %
22.03.2023 15:50 13,7 C 13,3 C 9,4 C 73 % 1007,5 hPa 0,0 l/m 0 min 0 min 74 W/m 22,5 km/h (4 Bft) 100,00 %
22.03.2023 15:52 13,7 C 13,3 C 9,4 C 73 % 1007,5 hPa 0,0 l/m 0 min 0 min 64 W/m 29,0 km/h (5 Bft) 100,00 %
22.03.2023 15:54 13,7 C 12,8 C 9,4 C 73 % 1007,5 hPa 0,0 l/m 0 min 0 min 59 W/m 32,2 km/h (5 Bft) 100,00 %
22.03.2023 15:56 13,7 C 12,8 C 8,9 C 73 % 1007,5 hPa 0,0 l/m 0 min 0 min 61 W/m 22,5 km/h (4 Bft) 95,74 %
22.03.2023 15:58 13,6 C 12,8 C 8,9 C 73 % 1007,5 hPa 0,0 l/m 0 min 0 min 60 W/m 32,2 km/h (5 Bft) 100,00 %
22.03.2023 16:00 13,6 C 12,8 C 8,9 C 73 % 1007,5 hPa 0,0 l/m 0 min 0 min 61 W/m 35,4 km/h (5 Bft) 100,00 %
22.03.2023 16:02 13,6 C 12,8 C 8,9 C 74 % 1007,6 hPa 0,0 l/m 0 min 0 min 63 W/m 22,5 km/h (4 Bft) 97,87 %
22.03.2023 16:04 13,6 C 12,8 C 8,9 C 74 % 1007,5 hPa 0,0 l/m 0 min 0 min 63 W/m 22,5 km/h (4 Bft) 100,00 %
22.03.2023 16:06 13,6 C 12,8 C 8,9 C 74 % 1007,6 hPa 0,0 l/m 0 min 0 min 59 W/m 32,2 km/h (5 Bft) 100,00 %
22.03.2023 16:08 13,6 C 12,8 C 8,9 C 74 % 1007,5 hPa 0,0 l/m 0 min 0 min 61 W/m 35,4 km/h (5 Bft) 100,00 %
22.03.2023 16:10 13,6 C 12,8 C 8,9 C 74 % 1007,5 hPa 0,0 l/m 0 min 0 min 57 W/m 19,3 km/h (3 Bft) 100,00 %
22.03.2023 16:12 13,6 C 12,8 C 8,9 C 75 % 1007,5 hPa 0,0 l/m 0 min 0 min 60 W/m 19,3 km/h (3 Bft) 100,00 %
22.03.2023 16:14 13,6 C 12,8 C 8,9 C 75 % 1007,5 hPa 0,0 l/m 0 min 0 min 58 W/m 22,5 km/h (4 Bft) 97,87 %
22.03.2023 16:16 13,6 C 12,8 C 8,9 C 75 % 1007,4 hPa 0,0 l/m 0 min 0 min 55 W/m 32,2 km/h (5 Bft) 95,74 %
22.03.2023 16:18 13,6 C 12,8 C 8,9 C 75 % 1007,4 hPa 0,0 l/m 0 min 0 min 56 W/m 25,7 km/h (4 Bft) 97,87 %
22.03.2023 16:20 13,6 C 12,8 C 8,9 C 75 % 1007,4 hPa 0,0 l/m 0 min 0 min 55 W/m 29,0 km/h (5 Bft) 100,00 %
22.03.2023 16:22 13,6 C 12,8 C 8,9 C 75 % 1007,4 hPa 0,0 l/m 0 min 0 min 51 W/m 29,0 km/h (5 Bft) 100,00 %
22.03.2023 16:24 13,5 C 12,8 C 8,9 C 75 % 1007,4 hPa 0,0 l/m 0 min 0 min 47 W/m 22,5 km/h (4 Bft) 100,00 %
22.03.2023 16:26 13,5 C 12,8 C 8,9 C 75 % 1007,3 hPa 0,0 l/m 0 min 0 min 51 W/m 19,3 km/h (3 Bft) 97,87 %
22.03.2023 16:28 13,5 C 12,8 C 8,9 C 75 % 1007,3 hPa 0,0 l/m 0 min 0 min 60 W/m 22,5 km/h (4 Bft) 97,87 %
22.03.2023 16:30 13,5 C 12,8 C 8,9 C 75 % 1007,2 hPa 0,0 l/m 0 min 0 min 67 W/m 32,2 km/h (5 Bft) 97,87 %
22.03.2023 16:32 13,5 C 12,8 C 8,9 C 75 % 1007,2 hPa 0,0 l/m 0 min 0 min 66 W/m 25,7 km/h (4 Bft) 97,87 %
22.03.2023 16:34 13,5 C 12,8 C 8,9 C 75 % 1007,2 hPa 0,0 l/m 0 min 0 min 63 W/m 29,0 km/h (5 Bft) 97,87 %
22.03.2023 16:36 13,4 C 12,8 C 8,9 C 75 % 1007,2 hPa 0,0 l/m 0 min 0 min 64 W/m 25,7 km/h (4 Bft) 95,65 %
22.03.2023 16:38 13,4 C 12,8 C 8,9 C 76 % 1007,1 hPa 0,0 l/m 0 min 0 min 77 W/m 22,5 km/h (4 Bft) 95,74 %
22.03.2023 16:40 13,4 C 12,8 C 8,9 C 75 % 1007,1 hPa 0,0 l/m 0 min 0 min 81 W/m 25,7 km/h (4 Bft) 93,62 %
22.03.2023 16:42 13,4 C 12,8 C 8,9 C 75 % 1007,0 hPa 0,0 l/m 0 min 0 min 78 W/m 35,4 km/h (5 Bft) 97,87 %
22.03.2023 16:44 13,5 C 12,8 C 8,9 C 75 % 1007,0 hPa 0,0 l/m 0 min 0 min 79 W/m 22,5 km/h (4 Bft) 95,74 %
22.03.2023 16:46 13,5 C 12,8 C 8,9 C 75 % 1007,0 hPa 0,0 l/m 0 min 0 min 86 W/m 22,5 km/h (4 Bft) 97,87 %
22.03.2023 16:48 13,5 C 12,8 C 8,9 C 76 % 1006,9 hPa 0,0 l/m 0 min 0 min 101 W/m 22,5 km/h (4 Bft) 97,83 %
22.03.2023 16:50 13,5 C 13,3 C 8,9 C 76 % 1007,0 hPa 0,0 l/m 0 min 0 min 100 W/m 22,5 km/h (4 Bft) 97,87 %
22.03.2023 16:52 13,6 C 13,3 C 8,9 C 76 % 1007,1 hPa 0,0 l/m 0 min 0 min 89 W/m 19,3 km/h (3 Bft) 97,87 %
22.03.2023 16:54 13,6 C 13,3 C 8,9 C 76 % 1007,1 hPa 0,0 l/m 0 min 0 min 91 W/m 25,7 km/h (4 Bft) 97,87 %
22.03.2023 16:56 13,6 C 13,3 C 9,4 C 76 % 1007,0 hPa 0,0 l/m 0 min 0 min 90 W/m 19,3 km/h (3 Bft) 91,49 %
22.03.2023 16:58 13,6 C 13,3 C 9,4 C 76 % 1007,1 hPa 0,0 l/m 0 min 0 min 92 W/m 16,1 km/h (3 Bft) 97,87 %
22.03.2023 17:00 13,6 C 13,3 C 9,4 C 76 % 1007,1 hPa 0,0 l/m 0 min 0 min 88 W/m 32,2 km/h (5 Bft) 95,74 %
22.03.2023 17:02 13,6 C 13,3 C 9,4 C 75 % 1007,0 hPa 0,0 l/m 0 min 0 min 83 W/m 16,1 km/h (3 Bft) 93,48 %
22.03.2023 17:04 13,6 C 13,3 C 9,4 C 75 % 1007,1 hPa 0,0 l/m 0 min 0 min 81 W/m 22,5 km/h (4 Bft) 95,74 %
22.03.2023 17:06 13,7 C 13,3 C 9,4 C 75 % 1007,1 hPa 0,0 l/m 0 min 0 min 74 W/m 25,7 km/h (4 Bft) 97,87 %
22.03.2023 17:08 13,7 C 13,3 C 9,4 C 75 % 1007,1 hPa 0,0 l/m 0 min 0 min 77 W/m 32,2 km/h (5 Bft) 48,78 %
22.03.2023 17:10 13,7 C 13,3 C 9,4 C 75 % 1007,2 hPa 0,0 l/m 0 min 0 min 82 W/m 22,5 km/h (4 Bft) 94,12 %
22.03.2023 17:12 13,7 C 13,3 C 9,4 C 75 % 1007,1 hPa 0,0 l/m 0 min 0 min 85 W/m 22,5 km/h (4 Bft) 95,74 %
22.03.2023 17:14 13,7 C 13,3 C 9,4 C 75 % 1007,1 hPa 0,0 l/m 0 min 0 min 80 W/m 41,8 km/h (6 Bft) 97,87 %
22.03.2023 17:16 13,7 C 13,3 C 9,4 C 75 % 1007,1 hPa 0,0 l/m 0 min 0 min 70 W/m 19,3 km/h (3 Bft) 97,83 %
22.03.2023 17:18 13,7 C 13,3 C 9,4 C 75 % 1007,1 hPa 0,0 l/m 0 min 0 min 67 W/m 12,9 km/h (3 Bft) 93,62 %
22.03.2023 17:20 13,7 C 13,3 C 9,4 C 75 % 1007,1 hPa 0,0 l/m 0 min 0 min 64 W/m 19,3 km/h (3 Bft) 97,87 %
22.03.2023 17:22 13,7 C 13,3 C 9,4 C 75 % 1007,2 hPa 0,0 l/m 0 min 0 min 64 W/m 16,1 km/h (3 Bft) 95,74 %
22.03.2023 17:24 13,7 C 13,3 C 9,4 C 75 % 1007,1 hPa 0,0 l/m 0 min 0 min 68 W/m 38,6 km/h (5 Bft) 97,87 %
22.03.2023 17:26 13,7 C 13,3 C 9,4 C 75 % 1007,1 hPa 0,0 l/m 0 min 0 min 64 W/m 16,1 km/h (3 Bft) 97,87 %
22.03.2023 17:28 13,7 C 13,3 C 9,4 C 76 % 1007,1 hPa 0,0 l/m 0 min 0 min 60 W/m 19,3 km/h (3 Bft) 93,62 %
22.03.2023 17:30 13,7 C 13,3 C 9,4 C 75 % 1007,1 hPa 0,0 l/m 0 min 0 min 54 W/m 35,4 km/h (5 Bft) 93,48 %
22.03.2023 17:32 13,7 C 13,3 C 9,4 C 75 % 1007,1 hPa 0,0 l/m 0 min 0 min 53 W/m 29,0 km/h (5 Bft) 97,87 %
22.03.2023 17:34 13,8 C 13,3 C 9,4 C 75 % 1007,1 hPa 0,0 l/m 0 min 0 min 50 W/m 22,5 km/h (4 Bft) 97,87 %
22.03.2023 17:36 13,8 C 13,3 C 9,4 C 76 % 1007,1 hPa 0,0 l/m 0 min 0 min 51 W/m 19,3 km/h (3 Bft) 97,87 %
22.03.2023 17:38 13,8 C 13,3 C 9,4 C 76 % 1007,1 hPa 0,0 l/m 0 min 0 min 50 W/m 16,1 km/h (3 Bft) 97,87 %
22.03.2023 17:40 13,8 C 13,3 C 9,4 C 76 % 1007,0 hPa 0,0 l/m 0 min 0 min 48 W/m 19,3 km/h (3 Bft) 97,87 %
22.03.2023 17:42 13,8 C 13,3 C 8,9 C 76 % 1007,0 hPa 0,0 l/m 0 min 0 min 43 W/m 12,9 km/h (3 Bft) 97,87 %
22.03.2023 17:44 13,7 C 12,8 C 8,9 C 76 % 1007,1 hPa 0,0 l/m 0 min 0 min 34 W/m 25,7 km/h (4 Bft) 97,83 %
22.03.2023 17:46 13,7 C 12,8 C 8,9 C 76 % 1007,1 hPa 0,0 l/m 0 min 0 min 30 W/m 25,7 km/h (4 Bft) 95,74 %
22.03.2023 17:48 13,7 C 12,8 C 8,9 C 76 % 1007,1 hPa 0,0 l/m 0 min 0 min 30 W/m 22,5 km/h (4 Bft) 95,74 %
22.03.2023 17:50 13,7 C 12,8 C 8,9 C 76 % 1007,1 hPa 0,0 l/m 0 min 0 min 30 W/m 29,0 km/h (5 Bft) 95,74 %
22.03.2023 17:52 13,7 C 12,8 C 8,9 C 76 % 1007,2 hPa 0,0 l/m 0 min 0 min 26 W/m 22,5 km/h (4 Bft) 95,74 %
22.03.2023 17:54 13,7 C 12,8 C 8,9 C 76 % 1007,1 hPa 0,0 l/m 0 min 0 min 27 W/m 22,5 km/h (4 Bft) 95,74 %
22.03.2023 17:56 13,7 C 12,8 C 8,9 C 76 % 1007,1 hPa 0,0 l/m 0 min 0 min 25 W/m 22,5 km/h (4 Bft) 93,48 %
22.03.2023 17:58 13,7 C 12,8 C 8,9 C 75 % 1007,2 hPa 0,0 l/m 0 min 0 min 26 W/m 25,7 km/h (4 Bft) 95,74 %
22.03.2023 18:00 13,7 C 12,8 C 8,9 C 75 % 1007,2 hPa 0,0 l/m 0 min 0 min 25 W/m 22,5 km/h (4 Bft) 97,87 %
22.03.2023 18:02 13,7 C 12,8 C 8,9 C 75 % 1007,2 hPa 0,0 l/m 0 min 0 min 25 W/m 32,2 km/h (5 Bft) 93,62 %
22.03.2023 18:04 13,7 C 12,8 C 8,9 C 75 % 1007,1 hPa 0,0 l/m 0 min 0 min 22 W/m 32,2 km/h (5 Bft) 95,74 %
22.03.2023 18:07 13,7 C 12,8 C 8,9 C 75 % 1007,1 hPa 0,0 l/m 0 min 0 min 23 W/m 22,5 km/h (4 Bft) 95,83 %
22.03.2023 18:08 13,7 C 12,8 C 8,9 C 75 % 1007,1 hPa 0,0 l/m 0 min 0 min 22 W/m 16,1 km/h (3 Bft) 100,00 %
22.03.2023 18:12 13,7 C 12,8 C 8,9 C 75 % 1007,1 hPa 0,0 l/m 0 min 0 min 23 W/m 22,5 km/h (4 Bft) 96,15 %
22.03.2023 18:14 13,7 C 12,8 C 8,9 C 75 % 1007,1 hPa 0,0 l/m 0 min 0 min 18 W/m 29,0 km/h (5 Bft) 95,74 %
22.03.2023 18:16 13,6 C 12,8 C 8,9 C 75 % 1007,1 hPa 0,0 l/m 0 min 0 min 14 W/m 29,0 km/h (5 Bft) 97,87 %
22.03.2023 18:18 13,6 C 12,8 C 8,9 C 76 % 1007,1 hPa 0,0 l/m 0 min 0 min 12 W/m 19,3 km/h (3 Bft) 95,74 %
22.03.2023 18:20 13,6 C 12,8 C 8,9 C 76 % 1007,0 hPa 0,0 l/m 0 min 0 min 12 W/m 32,2 km/h (5 Bft) 95,74 %
22.03.2023 18:22 13,6 C 12,8 C 8,9 C 76 % 1007,0 hPa 0,0 l/m 0 min 0 min 12 W/m 22,5 km/h (4 Bft) 97,87 %
22.03.2023 18:24 13,5 C 12,8 C 8,9 C 76 % 1007,0 hPa 0,0 l/m 0 min 0 min 11 W/m 29,0 km/h (5 Bft) 97,87 %
22.03.2023 18:26 13,5 C 12,8 C 8,9 C 75 % 1007,0 hPa 0,0 l/m 0 min 0 min 11 W/m 35,4 km/h (5 Bft) 91,30 %
22.03.2023 18:28 13,5 C 12,8 C 8,9 C 76 % 1007,0 hPa 0,0 l/m 0 min 0 min 8 W/m 19,3 km/h (3 Bft) 95,74 %
22.03.2023 18:30 13,5 C 12,8 C 8,9 C 76 % 1007,0 hPa 0,0 l/m 0 min 0 min 7 W/m 22,5 km/h (4 Bft) 89,36 %
22.03.2023 18:32 13,5 C 12,8 C 8,9 C 76 % 1007,1 hPa 0,0 l/m 0 min 0 min 7 W/m 16,1 km/h (3 Bft) 93,62 %
22.03.2023 18:34 13,4 C 12,8 C 8,9 C 76 % 1007,1 hPa 0,0 l/m 0 min 0 min 5 W/m 25,7 km/h (4 Bft) 95,74 %
22.03.2023 18:36 13,4 C 12,8 C 8,9 C 76 % 1007,1 hPa 0,0 l/m 0 min 0 min 5 W/m 22,5 km/h (4 Bft) 97,87 %
22.03.2023 18:38 13,4 C 12,8 C 8,9 C 76 % 1007,1 hPa 0,0 l/m 0 min 0 min 5 W/m 22,5 km/h (4 Bft) 95,65 %
22.03.2023 18:40 13,4 C 12,8 C 8,9 C 76 % 1007,0 hPa 0,0 l/m 0 min 0 min 5 W/m 19,3 km/h (3 Bft) 97,87 %
22.03.2023 18:42 13,4 C 12,8 C 8,9 C 76 % 1007,0 hPa 0,0 l/m 0 min 0 min 5 W/m 16,1 km/h (3 Bft) 97,87 %
22.03.2023 18:44 13,4 C 12,8 C 8,9 C 76 % 1006,9 hPa 0,0 l/m 0 min 0 min 3 W/m 22,5 km/h (4 Bft) 93,62 %
22.03.2023 18:46 13,4 C 12,8 C 8,9 C 76 % 1007,0 hPa 0,0 l/m 0 min 0 min 0 W/m 29,0 km/h (5 Bft) 97,87 %
22.03.2023 18:48 13,4 C 12,8 C 8,9 C 76 % 1007,0 hPa 0,0 l/m 0 min 0 min 0 W/m 22,5 km/h (4 Bft) 97,87 %
22.03.2023 18:50 13,4 C 12,8 C 8,9 C 76 % 1006,9 hPa 0,0 l/m 0 min 0 min 0 W/m 48,3 km/h (6 Bft) 95,74 %
22.03.2023 18:52 13,4 C 12,8 C 8,9 C 76 % 1007,0 hPa 0,0 l/m 0 min 0 min 0 W/m 35,4 km/h (5 Bft) 97,83 %
22.03.2023 18:54 13,4 C 12,8 C 8,9 C 76 % 1007,0 hPa 0,0 l/m 0 min 0 min 0 W/m 35,4 km/h (5 Bft) 97,87 %
22.03.2023 18:56 13,4 C 12,8 C 8,9 C 76 % 1007,0 hPa 0,0 l/m 0 min 0 min 0 W/m 35,4 km/h (5 Bft) 95,74 %
22.03.2023 18:58 13,4 C 12,8 C 8,9 C 77 % 1007,0 hPa 0,0 l/m 0 min 0 min 0 W/m 22,5 km/h (4 Bft) 100,00 %
22.03.2023 19:00 13,4 C 12,8 C 8,9 C 77 % 1006,9 hPa 0,0 l/m 0 min 0 min 0 W/m 22,5 km/h (4 Bft) 100,00 %
22.03.2023 19:02 13,4 C 12,8 C 8,9 C 77 % 1007,0 hPa 0,0 l/m 0 min 0 min 0 W/m 19,3 km/h (3 Bft) 97,87 %
22.03.2023 19:04 13,4 C 12,8 C 8,9 C 77 % 1007,0 hPa 0,0 l/m 0 min 0 min 0 W/m 38,6 km/h (5 Bft) 100,00 %
22.03.2023 19:06 13,4 C 12,8 C 8,9 C 77 % 1007,0 hPa 0,0 l/m 0 min 0 min 0 W/m 32,2 km/h (5 Bft) 98,28 %
22.03.2023 19:08 13,4 C 12,8 C 8,9 C 78 % 1007,0 hPa 0,0 l/m 0 min 0 min 0 W/m 35,4 km/h (5 Bft) 97,14 %
22.03.2023 19:10 13,4 C 12,8 C 8,9 C 78 % 1006,9 hPa 0,0 l/m 0 min 0 min 0 W/m 16,1 km/h (3 Bft) 100,00 %
22.03.2023 19:12 13,4 C 12,8 C 8,9 C 78 % 1007,0 hPa 0,0 l/m 0 min 0 min 0 W/m 22,5 km/h (4 Bft) 97,87 %
22.03.2023 19:14 13,4 C 12,8 C 8,9 C 78 % 1006,9 hPa 0,0 l/m 0 min 0 min 0 W/m 29,0 km/h (5 Bft) 97,87 %
22.03.2023 19:16 13,3 C 12,8 C 8,9 C 78 % 1007,0 hPa 0,0 l/m 0 min 0 min 0 W/m 16,1 km/h (3 Bft) 100,00 %
22.03.2023 19:18 13,3 C 12,8 C 8,9 C 78 % 1007,0 hPa 0,0 l/m 0 min 0 min 0 W/m 22,5 km/h (4 Bft) 100,00 %
22.03.2023 19:20 13,3 C 12,8 C 8,9 C 78 % 1007,0 hPa 0,0 l/m 0 min 0 min 0 W/m 19,3 km/h (3 Bft) 97,87 %
22.03.2023 19:22 13,3 C 12,8 C 8,9 C 78 % 1006,9 hPa 0,0 l/m 0 min 0 min 0 W/m 16,1 km/h (3 Bft) 100,00 %
22.03.2023 19:24 13,4 C 12,8 C 8,9 C 78 % 1006,9 hPa 0,0 l/m 0 min 0 min 0 W/m 35,4 km/h (5 Bft) 97,87 %
22.03.2023 19:26 13,4 C 12,8 C 8,9 C 78 % 1006,9 hPa 0,0 l/m 0 min 0 min 0 W/m 25,7 km/h (4 Bft) 95,74 %
22.03.2023 19:28 13,4 C 12,8 C 8,9 C 78 % 1006,9 hPa 0,0 l/m 0 min 0 min 0 W/m 29,0 km/h (5 Bft) 100,00 %
22.03.2023 19:30 13,4 C 12,8 C 8,9 C 78 % 1006,8 hPa 0,0 l/m 0 min 0 min 0 W/m 35,4 km/h (5 Bft) 100,00 %
22.03.2023 19:32 13,4 C 12,8 C 8,9 C 78 % 1006,9 hPa 0,0 l/m 0 min 0 min 0 W/m 35,4 km/h (5 Bft) 100,00 %
22.03.2023 19:34 13,4 C 12,8 C 8,9 C 78 % 1006,9 hPa 0,0 l/m 0 min 0 min 0 W/m 35,4 km/h (5 Bft) 97,87 %
22.03.2023 19:36 13,4 C 12,8 C 8,9 C 78 % 1006,9 hPa 0,0 l/m 0 min 0 min 0 W/m 32,2 km/h (5 Bft) 100,00 %
22.03.2023 19:38 13,4 C 12,8 C 8,9 C 78 % 1006,8 hPa 0,0 l/m 0 min 0 min 0 W/m 22,5 km/h (4 Bft) 97,87 %
22.03.2023 19:40 13,4 C 12,8 C 8,9 C 78 % 1006,8 hPa 0,0 l/m 0 min 0 min 0 W/m 48,3 km/h (6 Bft) 100,00 %
22.03.2023 19:42 13,4 C 12,8 C 8,9 C 78 % 1006,8 hPa 0,0 l/m 0 min 0 min 0 W/m 45,1 km/h (6 Bft) 100,00 %
22.03.2023 19:44 13,4 C 12,8 C 8,9 C 79 % 1006,8 hPa 0,0 l/m 0 min 0 min 0 W/m 25,7 km/h (4 Bft) 100,00 %
22.03.2023 19:46 13,4 C 12,8 C 8,9 C 79 % 1006,9 hPa 0,0 l/m 0 min 0 min 0 W/m 45,1 km/h (6 Bft) 100,00 %
22.03.2023 19:48 13,4 C 12,8 C 8,9 C 79 % 1006,9 hPa 0,0 l/m 0 min 0 min 0 W/m 35,4 km/h (5 Bft) 100,00 %
22.03.2023 19:50 13,4 C 12,8 C 8,9 C 79 % 1006,8 hPa 0,0 l/m 0 min 0 min 0 W/m 22,5 km/h (4 Bft) 97,87 %
22.03.2023 19:52 13,4 C 12,8 C 8,9 C 79 % 1006,8 hPa 0,0 l/m 0 min 0 min 0 W/m 32,2 km/h (5 Bft) 97,87 %
22.03.2023 19:54 13,4 C 12,8 C 8,9 C 79 % 1006,8 hPa 0,0 l/m 0 min 0 min 0 W/m 32,2 km/h (5 Bft) 97,87 %
22.03.2023 19:56 13,4 C 12,8 C 8,9 C 79 % 1006,8 hPa 0,0 l/m 0 min 0 min 0 W/m 16,1 km/h (3 Bft) 97,87 %
22.03.2023 19:58 13,3 C 12,8 C 8,9 C 79 % 1006,7 hPa 0,0 l/m 0 min 0 min 0 W/m 22,5 km/h (4 Bft) 95,74 %
22.03.2023 20:00 13,3 C 12,8 C 8,9 C 79 % 1006,7 hPa 0,0 l/m 0 min 0 min 0 W/m 29,0 km/h (5 Bft) 97,83 %
22.03.2023 20:02 13,3 C 12,8 C 8,9 C 79 % 1006,7 hPa 0,0 l/m 0 min 0 min 0 W/m 25,7 km/h (4 Bft) 97,87 %
22.03.2023 20:04 13,3 C 12,8 C 8,9 C 79 % 1006,7 hPa 0,0 l/m 0 min 0 min 0 W/m 29,0 km/h (5 Bft) 83,33 %
22.03.2023 20:06 13,3 C 12,8 C 8,9 C 80 % 1006,6 hPa 0,0 l/m 0 min 0 min 0 W/m 29,0 km/h (5 Bft) 63,64 %
22.03.2023 20:08 13,3 C 12,8 C 8,9 C 80 % 1006,7 hPa 0,0 l/m 0 min 0 min 0 W/m 22,5 km/h (4 Bft) 95,83 %
22.03.2023 20:10 13,3 C 12,2 C 8,9 C 80 % 1006,8 hPa 0,0 l/m 0 min 0 min 0 W/m 32,2 km/h (5 Bft) 97,87 %
22.03.2023 20:12 13,3 C 12,2 C 8,3 C 80 % 1006,8 hPa 0,0 l/m 0 min 0 min 0 W/m 12,9 km/h (3 Bft) 97,83 %
22.03.2023 20:14 13,3 C 12,2 C 8,3 C 80 % 1006,8 hPa 0,0 l/m 0 min 0 min 0 W/m 22,5 km/h (4 Bft) 97,87 %
22.03.2023 20:16 13,3 C 12,2 C 8,3 C 80 % 1006,8 hPa 0,0 l/m 0 min 0 min 0 W/m 22,5 km/h (4 Bft) 95,74 %
22.03.2023 20:18 13,3 C 12,2 C 8,3 C 80 % 1006,8 hPa 0,0 l/m 0 min 0 min 0 W/m 29,0 km/h (5 Bft) 97,87 %
22.03.2023 20:20 13,3 C 12,2 C 8,3 C 80 % 1006,6 hPa 0,0 l/m 0 min 0 min 0 W/m 25,7 km/h (4 Bft) 97,62 %
22.03.2023 20:22 13,3 C 12,2 C 8,3 C 80 % 1006,6 hPa 0,0 l/m 0 min 0 min 0 W/m 25,7 km/h (4 Bft) 95,74 %
22.03.2023 20:24 13,2 C 12,2 C 8,3 C 81 % 1006,6 hPa 0,0 l/m 0 min 0 min 0 W/m 35,4 km/h (5 Bft) 93,62 %
22.03.2023 20:26 13,2 C 12,2 C 8,9 C 81 % 1006,5 hPa 0,0 l/m 0 min 0 min 0 W/m 29,0 km/h (5 Bft) 93,62 %
22.03.2023 20:28 13,2 C 12,2 C 8,3 C 81 % 1006,5 hPa 0,0 l/m 0 min 2 min 0 W/m 29,0 km/h (5 Bft) 95,65 %
22.03.2023 20:30 13,2 C 12,2 C 7,8 C 81 % 1006,6 hPa 0,0 l/m 0 min 2 min 0 W/m 32,2 km/h (5 Bft) 95,74 %
22.03.2023 20:32 13,2 C 12,2 C 7,8 C 82 % 1006,6 hPa 0,0 l/m 0 min 2 min 0 W/m 25,7 km/h (4 Bft) 91,84 %
22.03.2023 20:34 13,2 C 12,2 C 7,8 C 82 % 1006,5 hPa 0,0 l/m 0 min 2 min 0 W/m 22,5 km/h (4 Bft) 95,74 %
22.03.2023 20:36 13,2 C 12,2 C 7,8 C 82 % 1006,4 hPa 0,0 l/m 0 min 2 min 0 W/m 29,0 km/h (5 Bft) 93,62 %
22.03.2023 20:38 13,1 C 12,2 C 7,8 C 82 % 1006,4 hPa 0,0 l/m 0 min 0 min 0 W/m 16,1 km/h (3 Bft) 93,62 %
22.03.2023 20:40 13,1 C 12,2 C 7,8 C 83 % 1006,4 hPa 0,0 l/m 0 min 2 min 0 W/m 16,1 km/h (3 Bft) 91,30 %
22.03.2023 20:42 13,1 C 12,2 C 7,8 C 83 % 1006,5 hPa 0,0 l/m 0 min 2 min 0 W/m 16,1 km/h (3 Bft) 96,23 %
22.03.2023 20:44 13,1 C 12,2 C 7,8 C 83 % 1006,4 hPa 0,0 l/m 0 min 0 min 0 W/m 16,1 km/h (3 Bft) 95,74 %
22.03.2023 20:46 13,0 C 12,2 C 7,8 C 83 % 1006,5 hPa 0,0 l/m 0 min 0 min 0 W/m 12,9 km/h (3 Bft) 95,74 %
22.03.2023 20:48 13,0 C 12,2 C 7,8 C 83 % 1006,5 hPa 0,0 l/m 0 min 0 min 0 W/m 22,5 km/h (4 Bft) 95,74 %
22.03.2023 20:50 12,9 C 12,2 C 7,8 C 83 % 1006,4 hPa 0,0 l/m 0 min 0 min 0 W/m 32,2 km/h (5 Bft) 95,74 %
22.03.2023 20:52 12,9 C 12,2 C 8,3 C 83 % 1006,4 hPa 0,0 l/m 0 min 0 min 0 W/m 19,3 km/h (3 Bft) 93,10 %
22.03.2023 20:54 12,9 C 12,2 C 8,3 C 83 % 1006,4 hPa 0,0 l/m 0 min 0 min 0 W/m 22,5 km/h (4 Bft) 98,28 %
22.03.2023 20:56 12,9 C 12,2 C 8,3 C 83 % 1006,4 hPa 0,0 l/m 0 min 0 min 0 W/m 19,3 km/h (3 Bft) 97,87 %
22.03.2023 20:58 12,9 C 12,2 C 8,3 C 83 % 1006,4 hPa 0,0 l/m 0 min 0 min 0 W/m 22,5 km/h (4 Bft) 97,87 %
22.03.2023 21:00 12,9 C 12,2 C 8,3 C 83 % 1006,4 hPa 0,0 l/m 0 min 0 min 0 W/m 22,5 km/h (4 Bft) 97,87 %
22.03.2023 21:02 12,9 C 12,2 C 8,3 C 83 % 1006,3 hPa 0,0 l/m 0 min 0 min 0 W/m 25,7 km/h (4 Bft) 97,78 %
22.03.2023 21:04 12,9 C 12,2 C 8,3 C 83 % 1006,3 hPa 0,0 l/m 0 min 0 min 0 W/m 19,3 km/h (3 Bft) 97,87 %
22.03.2023 21:06 12,9 C 12,2 C 8,3 C 83 % 1006,2 hPa 0,0 l/m 0 min 0 min 0 W/m 22,5 km/h (4 Bft) 96,55 %
22.03.2023 21:08 12,9 C 12,2 C 8,3 C 83 % 1006,2 hPa 0,0 l/m 0 min 0 min 0 W/m 16,1 km/h (3 Bft) 100,00 %
22.03.2023 21:10 12,9 C 12,2 C 8,3 C 83 % 1006,2 hPa 0,0 l/m 0 min 0 min 0 W/m 22,5 km/h (4 Bft) 95,74 %
22.03.2023 21:12 12,9 C 12,2 C 8,3 C 83 % 1006,2 hPa 0,0 l/m 0 min 0 min 0 W/m 19,3 km/h (3 Bft) 97,96 %
22.03.2023 21:14 12,9 C 12,2 C 8,3 C 83 % 1006,1 hPa 0,0 l/m 0 min 0 min 0 W/m 22,5 km/h (4 Bft) 95,74 %
22.03.2023 21:16 12,9 C 12,2 C 8,3 C 83 % 1006,2 hPa 0,0 l/m 0 min 0 min 0 W/m 25,7 km/h (4 Bft) 95,74 %
22.03.2023 21:18 12,9 C 12,2 C 8,3 C 83 % 1006,1 hPa 0,0 l/m 0 min 0 min 0 W/m 48,3 km/h (6 Bft) 97,87 %
22.03.2023 21:20 12,9 C 12,2 C 8,3 C 83 % 1006,2 hPa 0,0 l/m 0 min 0 min 0 W/m 16,1 km/h (3 Bft) 95,65 %
22.03.2023 21:22 12,9 C 12,2 C 8,3 C 83 % 1006,2 hPa 0,0 l/m 0 min 0 min 0 W/m 22,5 km/h (4 Bft) 97,73 %
22.03.2023 21:24 12,9 C 12,2 C 8,3 C 83 % 1006,2 hPa 0,0 l/m 0 min 0 min 0 W/m 12,9 km/h (3 Bft) 100,00 %
22.03.2023 21:26 12,9 C 12,2 C 8,3 C 83 % 1006,2 hPa 0,0 l/m 0 min 0 min 0 W/m 25,7 km/h (4 Bft) 97,87 %
22.03.2023 21:28 12,9 C 12,2 C 8,3 C 83 % 1006,2 hPa 0,0 l/m 0 min 0 min 0 W/m 25,7 km/h (4 Bft) 97,87 %
22.03.2023 21:30 12,9 C 12,2 C 8,3 C 83 % 1006,3 hPa 0,0 l/m 0 min 0 min 0 W/m 32,2 km/h (5 Bft) 100,00 %
22.03.2023 21:32 12,9 C 12,2 C 8,3 C 83 % 1006,2 hPa 0,0 l/m 0 min 0 min 0 W/m 25,7 km/h (4 Bft) 100,00 %
22.03.2023 21:34 12,9 C 12,2 C 8,3 C 83 % 1006,2 hPa 0,0 l/m 0 min 0 min 0 W/m 29,0 km/h (5 Bft) 100,00 %
22.03.2023 21:36 12,9 C 12,2 C 8,3 C 83 % 1006,2 hPa 0,0 l/m 0 min 0 min 0 W/m 25,7 km/h (4 Bft) 100,00 %
22.03.2023 21:38 12,9 C 11,7 C 7,8 C 83 % 1006,1 hPa 0,0 l/m 0 min 2 min 0 W/m 32,2 km/h (5 Bft) 97,87 %
22.03.2023 21:40 12,9 C 11,7 C 7,8 C 83 % 1006,1 hPa 0,0 l/m 0 min 2 min 0 W/m 32,2 km/h (5 Bft) 100,00 %
22.03.2023 21:42 12,9 C 11,7 C 7,8 C 84 % 1006,0 hPa 0,0 l/m 0 min 2 min 0 W/m 22,5 km/h (4 Bft) 95,74 %
22.03.2023 21:44 12,9 C 11,7 C 7,2 C 84 % 1006,0 hPa 0,0 l/m 0 min 2 min 0 W/m 25,7 km/h (4 Bft) 100,00 %
22.03.2023 21:46 12,9 C 11,7 C 7,2 C 84 % 1006,0 hPa 0,0 l/m 0 min 2 min 0 W/m 41,8 km/h (6 Bft) 100,00 %
22.03.2023 21:48 12,8 C 11,1 C 7,2 C 84 % 1006,0 hPa 0,0 l/m 0 min 2 min 0 W/m 35,4 km/h (5 Bft) 100,00 %
22.03.2023 21:50 12,8 C 11,1 C 7,2 C 84 % 1006,1 hPa 0,0 l/m 0 min 2 min 0 W/m 41,8 km/h (6 Bft) 100,00 %
22.03.2023 21:52 12,8 C 11,1 C 7,2 C 84 % 1006,1 hPa 0,0 l/m 0 min 2 min 0 W/m 29,0 km/h (5 Bft) 100,00 %
22.03.2023 21:54 12,8 C 11,1 C 7,2 C 84 % 1006,0 hPa 0,0 l/m 0 min 2 min 0 W/m 35,4 km/h (5 Bft) 100,00 %
22.03.2023 21:56 12,7 C 11,7 C 7,2 C 84 % 1006,0 hPa 0,0 l/m 0 min 2 min 0 W/m 32,2 km/h (5 Bft) 97,87 %
22.03.2023 21:58 12,7 C 11,7 C 7,2 C 84 % 1005,9 hPa 0,0 l/m 0 min 0 min 0 W/m 32,2 km/h (5 Bft) 100,00 %
22.03.2023 22:00 12,7 C 11,7 C 7,8 C 84 % 1005,9 hPa 0,0 l/m 0 min 0 min 0 W/m 29,0 km/h (5 Bft) 100,00 %
22.03.2023 22:02 12,7 C 11,7 C 7,8 C 84 % 1005,9 hPa 0,0 l/m 0 min 0 min 0 W/m 32,2 km/h (5 Bft) 100,00 %
22.03.2023 22:04 12,7 C 11,7 C 7,8 C 84 % 1005,8 hPa 0,0 l/m 0 min 0 min 0 W/m 25,7 km/h (4 Bft) 100,00 %
22.03.2023 22:06 12,7 C 12,2 C 7,8 C 84 % 1005,9 hPa 0,0 l/m 0 min 0 min 0 W/m 22,5 km/h (4 Bft) 97,92 %
22.03.2023 22:08 12,7 C 12,2 C 7,8 C 84 % 1005,9 hPa 0,0 l/m 0 min 0 min 0 W/m 32,2 km/h (5 Bft) 100,00 %
22.03.2023 22:10 12,7 C 12,2 C 7,8 C 84 % 1005,8 hPa 0,0 l/m 0 min 0 min 0 W/m 25,7 km/h (4 Bft) 100,00 %
22.03.2023 22:12 12,8 C 12,2 C 7,8 C 84 % 1005,9 hPa 0,0 l/m 0 min 0 min 0 W/m 35,4 km/h (5 Bft) 97,87 %
22.03.2023 22:14 12,8 C 12,2 C 7,8 C 84 % 1005,7 hPa 0,0 l/m 0 min 0 min 0 W/m 22,5 km/h (4 Bft) 97,87 %
22.03.2023 22:16 12,8 C 12,2 C 8,3 C 84 % 1005,8 hPa 0,0 l/m 0 min 0 min 0 W/m 22,5 km/h (4 Bft) 97,92 %
22.03.2023 22:18 12,8 C 12,2 C 8,3 C 84 % 1005,9 hPa 0,0 l/m 0 min 0 min 0 W/m 25,7 km/h (4 Bft) 97,87 %
22.03.2023 22:20 12,8 C 12,2 C 8,3 C 84 % 1005,7 hPa 0,0 l/m 0 min 0 min 0 W/m 45,1 km/h (6 Bft) 97,87 %
22.03.2023 22:22 12,8 C 12,2 C 7,8 C 83 % 1005,7 hPa 0,0 l/m 0 min 0 min 0 W/m 32,2 km/h (5 Bft) 97,87 %
22.03.2023 22:24 12,9 C 12,2 C 7,8 C 83 % 1005,7 hPa 0,0 l/m 0 min 0 min 0 W/m 35,4 km/h (5 Bft) 95,74 %
22.03.2023 22:26 12,9 C 12,2 C 7,8 C 83 % 1005,7 hPa 0,0 l/m 0 min 0 min 0 W/m 22,5 km/h (4 Bft) 97,87 %
22.03.2023 22:28 12,9 C 12,2 C 7,8 C 83 % 1005,7 hPa 0,0 l/m 0 min 2 min 0 W/m 25,7 km/h (4 Bft) 97,87 %
22.03.2023 22:30 12,9 C 12,2 C 7,8 C 83 % 1005,8 hPa 0,0 l/m 0 min 2 min 0 W/m 25,7 km/h (4 Bft) 97,83 %
22.03.2023 22:32 12,9 C 12,2 C 7,8 C 83 % 1005,8 hPa 0,0 l/m 0 min 2 min 0 W/m 35,4 km/h (5 Bft) 95,74 %
22.03.2023 22:34 12,9 C 12,2 C 7,8 C 83 % 1005,7 hPa 0,0 l/m 0 min 2 min 0 W/m 38,6 km/h (5 Bft) 95,74 %
22.03.2023 22:36 12,9 C 11,7 C 7,8 C 83 % 1005,7 hPa 0,0 l/m 0 min 2 min 0 W/m 29,0 km/h (5 Bft) 87,23 %
22.03.2023 22:38 12,9 C 11,7 C 7,8 C 83 % 1005,8 hPa 0,0 l/m 0 min 2 min 0 W/m 35,4 km/h (5 Bft) 60,53 %
22.03.2023 22:40 12,9 C 11,7 C 7,2 C 83 % 1005,7 hPa 0,0 l/m 0 min 2 min 0 W/m 35,4 km/h (5 Bft) 95,74 %
22.03.2023 22:42 12,9 C 11,7 C 7,2 C 83 % 1005,8 hPa 0,0 l/m 0 min 2 min 0 W/m 45,1 km/h (6 Bft) 97,83 %
22.03.2023 22:44 12,9 C 11,7 C 7,2 C 84 % 1005,7 hPa 0,0 l/m 0 min 2 min 0 W/m 35,4 km/h (5 Bft) 95,83 %
22.03.2023 22:46 12,9 C 11,7 C 7,8 C 84 % 1005,7 hPa 0,0 l/m 0 min 2 min 0 W/m 32,2 km/h (5 Bft) 95,74 %
22.03.2023 22:48 12,9 C 11,7 C 7,2 C 84 % 1005,6 hPa 0,0 l/m 0 min 2 min 0 W/m 25,7 km/h (4 Bft) 95,74 %
22.03.2023 22:50 12,9 C 12,2 C 7,2 C 83 % 1005,7 hPa 0,0 l/m 0 min 2 min 0 W/m 32,2 km/h (5 Bft) 97,87 %
22.03.2023 22:52 12,9 C 12,2 C 7,8 C 83 % 1005,6 hPa 0,0 l/m 0 min 2 min 0 W/m 35,4 km/h (5 Bft) 97,87 %
22.03.2023 22:54 12,9 C 12,2 C 7,8 C 83 % 1005,6 hPa 0,0 l/m 0 min 2 min 0 W/m 35,4 km/h (5 Bft) 97,87 %
22.03.2023 22:56 12,9 C 12,2 C 7,8 C 83 % 1005,5 hPa 0,0 l/m 0 min 2 min 0 W/m 29,0 km/h (5 Bft) 95,65 %
22.03.2023 22:58 12,9 C 12,2 C 7,8 C 84 % 1005,5 hPa 0,0 l/m 0 min 0 min 0 W/m 22,5 km/h (4 Bft) 95,74 %
22.03.2023 23:00 12,9 C 12,2 C 7,8 C 84 % 1005,5 hPa 0,0 l/m 0 min 0 min 0 W/m 22,5 km/h (4 Bft) 97,87 %
22.03.2023 23:02 12,9 C 12,2 C 8,3 C 84 % 1005,6 hPa 0,0 l/m 0 min 0 min 0 W/m 25,7 km/h (4 Bft) 95,74 %
22.03.2023 23:04 12,9 C 12,2 C 8,3 C 84 % 1005,5 hPa 0,0 l/m 0 min 0 min 0 W/m 25,7 km/h (4 Bft) 97,87 %
22.03.2023 23:06 12,8 C 12,2 C 8,3 C 83 % 1005,6 hPa 0,0 l/m 0 min 0 min 0 W/m 32,2 km/h (5 Bft) 95,74 %
22.03.2023 23:08 12,9 C 12,2 C 8,3 C 83 % 1005,6 hPa 0,0 l/m 0 min 0 min 0 W/m 22,5 km/h (4 Bft) 97,30 %
22.03.2023 23:10 12,9 C 12,2 C 8,3 C 83 % 1005,6 hPa 0,0 l/m 0 min 0 min 0 W/m 22,5 km/h (4 Bft) 95,65 %
22.03.2023 23:12 12,9 C 12,2 C 8,3 C 83 % 1005,6 hPa 0,0 l/m 0 min 0 min 0 W/m 19,3 km/h (3 Bft) 93,62 %
22.03.2023 23:14 12,9 C 12,2 C 8,3 C 83 % 1005,6 hPa 0,0 l/m 0 min 0 min 0 W/m 19,3 km/h (3 Bft) 97,87 %
22.03.2023 23:16 12,8 C 12,2 C 8,3 C 84 % 1005,6 hPa 0,0 l/m 0 min 2 min 0 W/m 32,2 km/h (5 Bft) 95,74 %
22.03.2023 23:18 12,9 C 11,7 C 7,8 C 84 % 1005,6 hPa 0,0 l/m 0 min 2 min 0 W/m 32,2 km/h (5 Bft) 95,74 %
22.03.2023 23:20 12,8 C 11,7 C 7,8 C 84 % 1006,0 hPa 0,0 l/m 0 min 2 min 0 W/m 38,6 km/h (5 Bft) 95,74 %
22.03.2023 23:22 12,8 C 11,7 C 7,2 C 84 % 1005,4 hPa 0,0 l/m 0 min 2 min 0 W/m 22,5 km/h (4 Bft) 95,65 %
22.03.2023 23:24 12,8 C 11,7 C 7,2 C 85 % 1005,4 hPa 0,0 l/m 0 min 2 min 0 W/m 25,7 km/h (4 Bft) 93,62 %
22.03.2023 23:26 12,7 C 11,7 C 7,2 C 85 % 1005,4 hPa 0,0 l/m 0 min 2 min 0 W/m 25,7 km/h (4 Bft) 95,74 %
22.03.2023 23:28 12,7 C 11,7 C 7,2 C 85 % 1005,4 hPa 0,0 l/m 0 min 2 min 0 W/m 32,2 km/h (5 Bft) 91,49 %
22.03.2023 23:30 12,6 C 11,1 C 7,2 C 86 % 1005,4 hPa 0,0 l/m 0 min 2 min 0 W/m 22,5 km/h (4 Bft) 95,74 %
22.03.2023 23:32 12,6 C 11,1 C 6,7 C 86 % 1005,4 hPa 0,0 l/m 0 min 2 min 0 W/m 29,0 km/h (5 Bft) 93,62 %
22.03.2023 23:34 12,6 C 11,7 C 7,2 C 86 % 1005,3 hPa 0,0 l/m 0 min 2 min 0 W/m 29,0 km/h (5 Bft) 97,87 %
22.03.2023 23:36 12,5 C 11,7 C 7,2 C 86 % 1005,4 hPa 0,2 l/m 0 min 2 min 0 W/m 29,0 km/h (5 Bft) 97,83 %
22.03.2023 23:38 12,5 C 11,7 C 7,2 C 86 % 1005,4 hPa 0,0 l/m 0 min 2 min 0 W/m 19,3 km/h (3 Bft) 97,92 %
22.03.2023 23:40 12,5 C 11,7 C 7,2 C 86 % 1005,5 hPa 0,0 l/m 0 min 2 min 0 W/m 25,7 km/h (4 Bft) 97,87 %
22.03.2023 23:42 12,4 C 11,1 C 6,7 C 86 % 1005,4 hPa 0,0 l/m 0 min 2 min 0 W/m 25,7 km/h (4 Bft) 97,87 %
22.03.2023 23:44 12,4 C 11,1 C 6,7 C 87 % 1005,4 hPa 0,0 l/m 0 min 2 min 0 W/m 22,5 km/h (4 Bft) 97,87 %
22.03.2023 23:46 12,4 C 11,1 C 6,7 C 87 % 1005,5 hPa 0,0 l/m 0 min 2 min 0 W/m 25,7 km/h (4 Bft) 97,87 %
22.03.2023 23:48 12,4 C 11,7 C 6,7 C 87 % 1005,5 hPa 0,0 l/m 0 min 2 min 0 W/m 32,2 km/h (5 Bft) 97,83 %
22.03.2023 23:50 12,4 C 11,7 C 6,7 C 87 % 1005,4 hPa 0,0 l/m 0 min 2 min 0 W/m 19,3 km/h (3 Bft) 98,18 %
22.03.2023 23:52 12,4 C 11,7 C 6,7 C 87 % 1005,5 hPa 0,0 l/m 0 min 2 min 0 W/m 41,8 km/h (6 Bft) 95,65 %
22.03.2023 23:54 12,4 C 11,7 C 6,7 C 86 % 1005,4 hPa 0,0 l/m 0 min 2 min 0 W/m 38,6 km/h (5 Bft) 97,87 %
22.03.2023 23:56 12,4 C 11,7 C 6,7 C 86 % 1005,3 hPa 0,0 l/m 0 min 0 min 0 W/m 22,5 km/h (4 Bft) 97,87 %
22.03.2023 23:58 12,4 C 11,7 C 7,2 C 86 % 1005,3 hPa 0,0 l/m 0 min 0 min 0 W/m 29,0 km/h (5 Bft) 95,74 %
_ Min-Zeit 04:02 03:26 03:56 12:30 23:34 - - - - 00:08 06:42
Minimum _ 9,4 C 8,3 C 5,0 C 72 % 1005,3 hPa - - - - 0,0 km/h (0 Bft) 48,57 %
_ Max-Zeit 17:34 11:06 11:10 04:18 00:00 23:36 09:48 13:14 11:06 08:40 00:00
Maximum _ 13,8 C 13,3 C 9,4 C 91 % 1011,7 hPa 0,2 l/m 2 min 2 min 347 W/m 64,4 km/h
S-SW (8 Bft)
100,00 %
Durchschnitt _ 12,0 C 11,4 C 7,6 C 81 % 1008,3 hPa #0,2 l/m #20 min. #1:48 h 107 W/m 21,9 km/h (4 Bft) 96,74 %
© 2023 W. Hausmann